Observation data for Doole 3WNW on 08/13/2019      Previous  Date  Next       Current Mesonet Observations  Soil Data  Daily Summary Page  Observations in Plain Language
KDO2 130500Z 15010KT 31/17 A2987 RMK A01 T03120167  RH  042%=      5-min Rain = 0
KDO2 130501Z 15009KT 31/17 A2987 RMK A01 T03120167  RH  042%=      5-min Rain = 0
KDO2 130502Z 16009KT 31/17 A2987 RMK A01 T03120167  RH  042%=      5-min Rain = 0
KDO2 130503Z 15008KT 31/17 A2987 RMK A01 T03110167  RH  042%=      5-min Rain = 0
KDO2 130504Z 15008KT 31/17 A2987 RMK A01 T03100167  RH  042%=      5-min Rain = 0
KDO2 130505Z 15009KT 31/17 A2987 RMK A01 T03090167  RH  042%=      5-min Rain = 0
KDO2 130506Z 15008KT 31/17 A2987 RMK A01 T03090167  RH  043%=      5-min Rain = 0
KDO2 130507Z 15009KT 31/17 A2987 RMK A01 T03090167  RH  043%=      5-min Rain = 0
KDO2 130508Z 15009KT 31/17 A2987 RMK A01 T03090167  RH  043%=      5-min Rain = 0
KDO2 130509Z 15008KT 31/17 A2987 RMK A01 T03090168  RH  043%=      5-min Rain = 0
KDO2 130510Z 16008KT 31/17 A2987 RMK A01 T03080168  RH  043%=      5-min Rain = 0
KDO2 130511Z 15008KT 31/17 A2987 RMK A01 T03080168  RH  043%=      5-min Rain = 0
KDO2 130512Z 15008KT 31/17 A2987 RMK A01 T03080168  RH  043%=      5-min Rain = 0
KDO2 130513Z 15009KT 31/17 A2987 RMK A01 T03080169  RH  043%=      5-min Rain = 0
KDO2 130514Z 15009KT 31/17 A2987 RMK A01 T03080168  RH  043%=      5-min Rain = 0
KDO2 130515Z 15008KT 31/17 A2987 RMK A01 T03080168  RH  043%=      5-min Rain = 0
KDO2 130516Z 15008KT 31/17 A2987 RMK A01 T03080169  RH  043%=      5-min Rain = 0
KDO2 130517Z 15008KT 31/17 A2987 RMK A01 T03080169  RH  043%=      5-min Rain = 0
KDO2 130518Z 15009KT 31/17 A2987 RMK A01 T03070169  RH  043%=      5-min Rain = 0
KDO2 130519Z 15009KT 31/17 A2987 RMK A01 T03070169  RH  044%=      5-min Rain = 0
KDO2 130520Z 16009KT 31/17 A2987 RMK A01 T03070169  RH  044%=      5-min Rain = 0
KDO2 130521Z 15009KT 31/17 A2987 RMK A01 T03070169  RH  044%=      5-min Rain = 0
KDO2 130522Z 15008KT 31/17 A2987 RMK A01 T03070169  RH  044%=      5-min Rain = 0
KDO2 130523Z 15008KT 31/17 A2987 RMK A01 T03070170  RH  044%=      5-min Rain = 0
KDO2 130524Z 15008KT 31/17 A2987 RMK A01 T03070170  RH  044%=      5-min Rain = 0
KDO2 130525Z 15008KT 31/17 A2987 RMK A01 T03070170  RH  044%=      5-min Rain = 0
KDO2 130526Z 15008KT 31/17 A2987 RMK A01 T03060170  RH  044%=      5-min Rain = 0
KDO2 130527Z 15009KT 31/17 A2987 RMK A01 T03060170  RH  044%=      5-min Rain = 0
KDO2 130528Z 15007KT 31/17 A2987 RMK A01 T03060170  RH  044%=      5-min Rain = 0
KDO2 130529Z 16008KT 31/17 A2987 RMK A01 T03060170  RH  044%=      5-min Rain = 0
KDO2 130530Z 15008KT 31/17 A2987 RMK A01 T03060170  RH  044%=      5-min Rain = 0
KDO2 130531Z 16007KT 31/17 A2987 RMK A01 T03060171  RH  044%=      5-min Rain = 0
KDO2 130532Z 16009KT 31/17 A2987 RMK A01 T03050170  RH  044%=      5-min Rain = 0
KDO2 130533Z 15007KT 31/17 A2987 RMK A01 T03050170  RH  044%=      5-min Rain = 0
KDO2 130534Z 16008KT 31/17 A2987 RMK A01 T03060171  RH  044%=      5-min Rain = 0
KDO2 130535Z 16008KT 31/17 A2987 RMK A01 T03050171  RH  044%=      5-min Rain = 0
KDO2 130536Z 15007KT 31/17 A2987 RMK A01 T03060171  RH  044%=      5-min Rain = 0
KDO2 130537Z 16007KT 31/17 A2987 RMK A01 T03050171  RH  045%=      5-min Rain = 0
KDO2 130538Z 16007KT 30/17 A2987 RMK A01 T03040171  RH  045%=      5-min Rain = 0
KDO2 130539Z 16007KT 30/17 A2987 RMK A01 T03040171  RH  045%=      5-min Rain = 0
KDO2 130540Z 16008KT 30/17 A2987 RMK A01 T03030171  RH  045%=      5-min Rain = 0
KDO2 130541Z 16008KT 30/17 A2987 RMK A01 T03030171  RH  045%=      5-min Rain = 0
KDO2 130542Z 16007KT 30/17 A2987 RMK A01 T03030171  RH  045%=      5-min Rain = 0
KDO2 130543Z 15007KT 30/17 A2987 RMK A01 T03030172  RH  045%=      5-min Rain = 0
KDO2 130544Z 15008KT 30/17 A2987 RMK A01 T03030172  RH  045%=      5-min Rain = 0
KDO2 130545Z 15007KT 30/17 A2987 RMK A01 T03030172  RH  045%=      5-min Rain = 0
KDO2 130546Z 15008KT 30/17 A2987 RMK A01 T03030172  RH  045%=      5-min Rain = 0
KDO2 130547Z 16007KT 30/17 A2987 RMK A01 T03030173  RH  046%=      5-min Rain = 0
KDO2 130548Z 16007KT 30/17 A2987 RMK A01 T03030173  RH  046%=      5-min Rain = 0
KDO2 130549Z 15008KT 30/17 A2987 RMK A01 T03030173  RH  046%=      5-min Rain = 0
KDO2 130550Z 16007KT 30/17 A2987 RMK A01 T03030173  RH  046%=      5-min Rain = 0
KDO2 130551Z 16007KT 30/17 A2987 RMK A01 T03030173  RH  046%=      5-min Rain = 0
KDO2 130552Z 16008KT 30/17 A2987 RMK A01 T03040174  RH  046%=      5-min Rain = 0
KDO2 130553Z 17009KT 30/17 A2987 RMK A01 T03040174  RH  046%=      5-min Rain = 0
KDO2 130554Z 16009KT 30/17 A2987 RMK A01 T03040174  RH  046%=      5-min Rain = 0
KDO2 130555Z 16008KT 31/18 A2987 RMK A01 T03050175  RH  046%=      5-min Rain = 0
KDO2 130556Z 16009KT 31/18 A2987 RMK A01 T03060175  RH  045%=      5-min Rain = 0
KDO2 130557Z 16009KT 31/18 A2987 RMK A01 T03060175  RH  045%=      5-min Rain = 0
KDO2 130558Z 16009KT 31/18 A2987 RMK A01 T03060175  RH  045%=      5-min Rain = 0
KDO2 130559Z 17011KT 31/18 A2987 RMK A01 T03060175  RH  046%=      5-min Rain = 0
KDO2 130600Z 16010KT 31/18 A2987 RMK A01 T03060176  RH  046%=      5-min Rain = 0
KDO2 130601Z 16009KT 31/18 A2987 RMK A01 T03070176  RH  045%=      5-min Rain = 0
KDO2 130602Z 16010KT 31/18 A2987 RMK A01 T03070176  RH  045%=      5-min Rain = 0
KDO2 130603Z 16009KT 31/18 A2987 RMK A01 T03070176  RH  045%=      5-min Rain = 0
KDO2 130604Z 16009KT 31/18 A2987 RMK A01 T03070176  RH  045%=      5-min Rain = 0
KDO2 130605Z 17010KT 31/18 A2987 RMK A01 T03070176  RH  045%=      5-min Rain = 0
KDO2 130606Z 16008KT 31/18 A2987 RMK A01 T03070176  RH  046%=      5-min Rain = 0
KDO2 130607Z 16009KT 31/18 A2987 RMK A01 T03070176  RH  046%=      5-min Rain = 0
KDO2 130608Z 16011KT 31/18 A2987 RMK A01 T03070177  RH  046%=      5-min Rain = 0
KDO2 130609Z 16008KT 31/18 A2987 RMK A01 T03070177  RH  046%=      5-min Rain = 0
KDO2 130610Z 16007KT 31/18 A2987 RMK A01 T03070177  RH  046%=      5-min Rain = 0
KDO2 130611Z 16009KT 31/18 A2987 RMK A01 T03060176  RH  046%=      5-min Rain = 0
KDO2 130612Z 16009KT 31/18 A2987 RMK A01 T03060177  RH  046%=      5-min Rain = 0
KDO2 130613Z 17008KT 31/18 A2987 RMK A01 T03060177  RH  046%=      5-min Rain = 0
KDO2 130614Z 16009KT 31/18 A2987 RMK A01 T03060177  RH  046%=      5-min Rain = 0
KDO2 130615Z 17009KT 31/18 A2987 RMK A01 T03060177  RH  046%=      5-min Rain = 0
KDO2 130616Z 16008KT 31/18 A2987 RMK A01 T03050177  RH  046%=      5-min Rain = 0
KDO2 130617Z 16008KT 31/18 A2987 RMK A01 T03050177  RH  046%=      5-min Rain = 0
KDO2 130618Z 16009KT 31/18 A2987 RMK A01 T03050177  RH  046%=      5-min Rain = 0
KDO2 130619Z 16009KT 30/18 A2987 RMK A01 T03040177  RH  046%=      5-min Rain = 0
KDO2 130620Z 16009KT 31/18 A2987 RMK A01 T03050177  RH  046%=      5-min Rain = 0
KDO2 130621Z 16008KT 30/18 A2987 RMK A01 T03040177  RH  047%=      5-min Rain = 0
KDO2 130622Z 16008KT 30/18 A2987 RMK A01 T03040177  RH  047%=      5-min Rain = 0
KDO2 130623Z 17009KT 30/18 A2987 RMK A01 T03030177  RH  047%=      5-min Rain = 0
KDO2 130624Z 16008KT 30/18 A2987 RMK A01 T03030177  RH  047%=      5-min Rain = 0
KDO2 130625Z 16009KT 30/18 A2987 RMK A01 T03040177  RH  047%=      5-min Rain = 0
KDO2 130626Z 16008KT 30/18 A2987 RMK A01 T03040177  RH  047%=      5-min Rain = 0
KDO2 130627Z 16007KT 30/18 A2987 RMK A01 T03040177  RH  047%=      5-min Rain = 0
KDO2 130628Z 16008KT 30/18 A2987 RMK A01 T03030177  RH  047%=      5-min Rain = 0
KDO2 130629Z 16008KT 30/18 A2987 RMK A01 T03030178  RH  047%=      5-min Rain = 0
KDO2 130630Z 16008KT 30/18 A2987 RMK A01 T03030178  RH  047%=      5-min Rain = 0
KDO2 130631Z 16008KT 30/18 A2987 RMK A01 T03020178  RH  047%=      5-min Rain = 0
KDO2 130632Z 16009KT 30/18 A2987 RMK A01 T03020178  RH  047%=      5-min Rain = 0
KDO2 130633Z 16009KT 30/18 A2987 RMK A01 T03020177  RH  047%=      5-min Rain = 0
KDO2 130634Z 16009KT 30/18 A2987 RMK A01 T03020177  RH  047%=      5-min Rain = 0
KDO2 130635Z 16010KT 30/18 A2987 RMK A01 T03020178  RH  047%=      5-min Rain = 0
KDO2 130636Z 16009KT 30/18 A2987 RMK A01 T03020178  RH  047%=      5-min Rain = 0
KDO2 130637Z 16009KT 30/18 A2987 RMK A01 T03020178  RH  048%=      5-min Rain = 0
KDO2 130638Z 17011KT 30/18 A2987 RMK A01 T03010178  RH  048%=      5-min Rain = 0
KDO2 130639Z 16010KT 30/18 A2987 RMK A01 T03010178  RH  048%=      5-min Rain = 0
KDO2 130640Z 17009KT 30/18 A2987 RMK A01 T03010178  RH  048%=      5-min Rain = 0
KDO2 130641Z 17010KT 30/18 A2987 RMK A01 T03010178  RH  048%=      5-min Rain = 0
KDO2 130642Z 16008KT 30/18 A2987 RMK A01 T03010178  RH  048%=      5-min Rain = 0
KDO2 130643Z 17010KT 30/18 A2987 RMK A01 T03010178  RH  048%=      5-min Rain = 0
KDO2 130644Z 16012KT 30/18 A2987 RMK A01 T03010178  RH  048%=      5-min Rain = 0
KDO2 130645Z 17012KT 30/18 A2987 RMK A01 T03020179  RH  048%=      5-min Rain = 0
KDO2 130646Z 16010KT 30/18 A2987 RMK A01 T03020179  RH  048%=      5-min Rain = 0
KDO2 130647Z 17010KT 30/18 A2987 RMK A01 T03020179  RH  048%=      5-min Rain = 0
KDO2 130648Z 17011KT 30/18 A2987 RMK A01 T03020179  RH  048%=      5-min Rain = 0
KDO2 130649Z 16011KT 30/18 A2987 RMK A01 T03020180  RH  048%=      5-min Rain = 0
KDO2 130650Z 16012KT 30/18 A2987 RMK A01 T03020180  RH  048%=      5-min Rain = 0
KDO2 130651Z 17012KT 30/18 A2987 RMK A01 T03020180  RH  048%=      5-min Rain = 0
KDO2 130652Z 16011KT 30/18 A2987 RMK A01 T03020181  RH  048%=      5-min Rain = 0
KDO2 130653Z 17011KT 30/18 A2988 RMK A01 T03020181  RH  048%=      5-min Rain = 0
KDO2 130654Z 17008KT 30/18 A2987 RMK A01 T03020181  RH  048%=      5-min Rain = 0
KDO2 130655Z 17008KT 30/18 A2988 RMK A01 T03010180  RH  048%=      5-min Rain = 0
KDO2 130656Z 17008KT 30/18 A2988 RMK A01 T03000180  RH  049%=      5-min Rain = 0
KDO2 130657Z 17009KT 30/18 A2988 RMK A01 T02990181  RH  049%=      5-min Rain = 0
KDO2 130658Z 17008KT 30/18 A2988 RMK A01 T02990181  RH  049%=      5-min Rain = 0
KDO2 130659Z 18007KT 30/18 A2988 RMK A01 T02990181  RH  049%=      5-min Rain = 0
KDO2 130700Z 18009KT 30/18 A2988 RMK A01 T02980181  RH  049%=      5-min Rain = 0
KDO2 130701Z 18009KT 30/18 A2988 RMK A01 T02980181  RH  050%=      5-min Rain = 0
KDO2 130702Z 18008KT 30/18 A2988 RMK A01 T02980181  RH  050%=      5-min Rain = 0
KDO2 130703Z 18008KT 30/18 A2988 RMK A01 T02970182  RH  050%=      5-min Rain = 0
KDO2 130704Z 17009KT 30/18 A2988 RMK A01 T02970182  RH  050%=      5-min Rain = 0
KDO2 130705Z 17008KT 30/18 A2988 RMK A01 T02960182  RH  050%=      5-min Rain = 0
KDO2 130706Z 17009KT 30/18 A2988 RMK A01 T02960182  RH  050%=      5-min Rain = 0
KDO2 130707Z 17009KT 30/18 A2988 RMK A01 T02960182  RH  050%=      5-min Rain = 0
KDO2 130708Z 18009KT 30/18 A2988 RMK A01 T02960183  RH  050%=      5-min Rain = 0
KDO2 130709Z 18009KT 30/18 A2988 RMK A01 T02960183  RH  051%=      5-min Rain = 0
KDO2 130710Z 18009KT 30/18 A2988 RMK A01 T02960183  RH  051%=      5-min Rain = 0
KDO2 130711Z 18009KT 30/18 A2988 RMK A01 T02960183  RH  051%=      5-min Rain = 0
KDO2 130712Z 18010KT 30/18 A2988 RMK A01 T02950183  RH  051%=      5-min Rain = 0
KDO2 130713Z 18009KT 30/18 A2988 RMK A01 T02950183  RH  051%=      5-min Rain = 0
KDO2 130714Z 17010KT 30/18 A2988 RMK A01 T02950183  RH  051%=      5-min Rain = 0
KDO2 130715Z 18009KT 30/18 A2988 RMK A01 T02950184  RH  051%=      5-min Rain = 0
KDO2 130716Z 17007KT 30/18 A2988 RMK A01 T02950184  RH  051%=      5-min Rain = 0
KDO2 130717Z 17009KT 30/18 A2988 RMK A01 T02950184  RH  051%=      5-min Rain = 0
KDO2 130718Z 17009KT 29/18 A2988 RMK A01 T02940184  RH  052%=      5-min Rain = 0
KDO2 130719Z 17011KT 29/18 A2988 RMK A01 T02940184  RH  052%=      5-min Rain = 0
KDO2 130720Z 17009KT 29/19 A2988 RMK A01 T02940185  RH  052%=      5-min Rain = 0
KDO2 130721Z 18007KT 29/19 A2988 RMK A01 T02940185  RH  052%=      5-min Rain = 0
KDO2 130722Z 18008KT 29/19 A2988 RMK A01 T02940185  RH  052%=      5-min Rain = 0
KDO2 130723Z 17008KT 29/19 A2988 RMK A01 T02930185  RH  052%=      5-min Rain = 0
KDO2 130724Z 17009KT 29/19 A2988 RMK A01 T02930186  RH  052%=      5-min Rain = 0
KDO2 130725Z 17009KT 29/19 A2988 RMK A01 T02930186  RH  053%=      5-min Rain = 0
KDO2 130726Z 16007KT 29/19 A2988 RMK A01 T02930186  RH  053%=      5-min Rain = 0
KDO2 130727Z 17008KT 29/19 A2988 RMK A01 T02920186  RH  053%=      5-min Rain = 0
KDO2 130728Z 17009KT 29/19 A2988 RMK A01 T02920186  RH  053%=      5-min Rain = 0
KDO2 130729Z 16009KT 29/19 A2988 RMK A01 T02920187  RH  053%=      5-min Rain = 0
KDO2 130730Z 17007KT 29/19 A2988 RMK A01 T02920187  RH  053%=      5-min Rain = 0
KDO2 130731Z 17008KT 29/19 A2988 RMK A01 T02920187  RH  053%=      5-min Rain = 0
KDO2 130732Z 17007KT 29/19 A2988 RMK A01 T02910187  RH  053%=      5-min Rain = 0
KDO2 130733Z 17008KT 29/19 A2988 RMK A01 T02910188  RH  054%=      5-min Rain = 0
KDO2 130734Z 17007KT 29/19 A2988 RMK A01 T02910188  RH  054%=      5-min Rain = 0
KDO2 130735Z 17009KT 29/19 A2988 RMK A01 T02900188  RH  054%=      5-min Rain = 0
KDO2 130736Z 17006KT 29/19 A2988 RMK A01 T02900188  RH  054%=      5-min Rain = 0
KDO2 130737Z 16007KT 29/19 A2988 RMK A01 T02900189  RH  054%=      5-min Rain = 0
KDO2 130738Z 16007KT 29/19 A2988 RMK A01 T02900189  RH  055%=      5-min Rain = 0
KDO2 130739Z 17008KT 29/19 A2988 RMK A01 T02900189  RH  055%=      5-min Rain = 0
KDO2 130740Z 17007KT 29/19 A2988 RMK A01 T02900190  RH  055%=      5-min Rain = 0
KDO2 130741Z 17008KT 29/19 A2988 RMK A01 T02890190  RH  055%=      5-min Rain = 0
KDO2 130742Z 18008KT 29/19 A2988 RMK A01 T02900191  RH  055%=      5-min Rain = 0
KDO2 130743Z 17007KT 29/19 A2988 RMK A01 T02890191  RH  055%=      5-min Rain = 0
KDO2 130744Z 18008KT 29/19 A2988 RMK A01 T02890191  RH  055%=      5-min Rain = 0
KDO2 130745Z 17007KT 29/19 A2988 RMK A01 T02890192  RH  056%=      5-min Rain = 0
KDO2 130746Z 17008KT 29/19 A2988 RMK A01 T02890192  RH  056%=      5-min Rain = 0
KDO2 130747Z 17008KT 29/19 A2988 RMK A01 T02890193  RH  056%=      5-min Rain = 0
KDO2 130748Z 17007KT 29/19 A2987 RMK A01 T02890193  RH  056%=      5-min Rain = 0
KDO2 130749Z 17009KT 29/19 A2987 RMK A01 T02890193  RH  056%=      5-min Rain = 0
KDO2 130750Z 17010KT 29/19 A2987 RMK A01 T02890194  RH  057%=      5-min Rain = 0
KDO2 130751Z 17008KT 29/20 A2987 RMK A01 T02900195  RH  057%=      5-min Rain = 0
KDO2 130752Z 17008KT 29/20 A2987 RMK A01 T02900195  RH  057%=      5-min Rain = 0
KDO2 130753Z 17010KT 29/20 A2987 RMK A01 T02890195  RH  057%=      5-min Rain = 0
KDO2 130754Z 18009KT 29/20 A2987 RMK A01 T02900196  RH  057%=      5-min Rain = 0
KDO2 130755Z 17009KT 29/20 A2987 RMK A01 T02900196  RH  057%=      5-min Rain = 0
KDO2 130756Z 17011KT 29/20 A2987 RMK A01 T02900197  RH  057%=      5-min Rain = 0
KDO2 130757Z 17009KT 29/20 A2987 RMK A01 T02900197  RH  057%=      5-min Rain = 0
KDO2 130758Z 17009KT 29/20 A2987 RMK A01 T02900197  RH  057%=      5-min Rain = 0
KDO2 130759Z 18010KT 29/20 A2987 RMK A01 T02900198  RH  058%=      5-min Rain = 0
KDO2 130800Z 17010KT 29/20 A2987 RMK A01 T02900199  RH  058%=      5-min Rain = 0
KDO2 130801Z 17009KT 29/20 A2987 RMK A01 T02900199  RH  058%=      5-min Rain = 0
KDO2 130802Z 18009KT 29/20 A2987 RMK A01 T02900199  RH  058%=      5-min Rain = 0
KDO2 130803Z 18008KT 29/20 A2987 RMK A01 T02900199  RH  058%=      5-min Rain = 0
KDO2 130804Z 18008KT 29/20 A2987 RMK A01 T02890199  RH  058%=      5-min Rain = 0
KDO2 130805Z 18009KT 29/20 A2987 RMK A01 T02890199  RH  058%=      5-min Rain = 0
KDO2 130806Z 18010KT 29/20 A2987 RMK A01 T02890200  RH  059%=      5-min Rain = 0
KDO2 130807Z 18011KT 29/20 A2987 RMK A01 T02890200  RH  059%=      5-min Rain = 0
KDO2 130808Z 17009KT 29/20 A2987 RMK A01 T02890200  RH  059%=      5-min Rain = 0
KDO2 130809Z 17010KT 29/20 A2987 RMK A01 T02890201  RH  059%=      5-min Rain = 0
KDO2 130810Z 17009KT 29/20 A2987 RMK A01 T02900201  RH  059%=      5-min Rain = 0
KDO2 130811Z 17010KT 29/20 A2987 RMK A01 T02890201  RH  059%=      5-min Rain = 0
KDO2 130812Z 17009KT 29/20 A2987 RMK A01 T02890202  RH  059%=      5-min Rain = 0
KDO2 130813Z 18010KT 29/20 A2987 RMK A01 T02890201  RH  059%=      5-min Rain = 0
KDO2 130814Z 18009KT 29/20 A2987 RMK A01 T02890202  RH  059%=      5-min Rain = 0
KDO2 130815Z 18009KT 29/20 A2987 RMK A01 T02880202  RH  059%=      5-min Rain = 0
KDO2 130816Z 18009KT 29/20 A2987 RMK A01 T02890202  RH  060%=      5-min Rain = 0
KDO2 130817Z 17008KT 29/20 A2987 RMK A01 T02880202  RH  060%=      5-min Rain = 0
KDO2 130818Z 17008KT 29/20 A2987 RMK A01 T02880202  RH  060%=      5-min Rain = 0
KDO2 130819Z 18009KT 29/20 A2987 RMK A01 T02870203  RH  060%=      5-min Rain = 0
KDO2 130820Z 18009KT 29/20 A2987 RMK A01 T02880203  RH  060%=      5-min Rain = 0
KDO2 130821Z 17008KT 29/20 A2987 RMK A01 T02880203  RH  060%=      5-min Rain = 0
KDO2 130822Z 17008KT 29/20 A2987 RMK A01 T02880203  RH  060%=      5-min Rain = 0
KDO2 130823Z 16009KT 29/20 A2987 RMK A01 T02870203  RH  060%=      5-min Rain = 0
KDO2 130824Z 17008KT 29/20 A2987 RMK A01 T02870204  RH  061%=      5-min Rain = 0
KDO2 130825Z 18009KT 29/20 A2987 RMK A01 T02870204  RH  061%=      5-min Rain = 0
KDO2 130826Z 17011KT 29/20 A2987 RMK A01 T02870204  RH  061%=      5-min Rain = 0
KDO2 130827Z 17010KT 29/20 A2987 RMK A01 T02870204  RH  061%=      5-min Rain = 0
KDO2 130828Z 17009KT 29/21 A2987 RMK A01 T02870205  RH  061%=      5-min Rain = 0
KDO2 130829Z 17010KT 29/21 A2987 RMK A01 T02870205  RH  061%=      5-min Rain = 0
KDO2 130830Z 18010KT 29/21 A2987 RMK A01 T02870206  RH  061%=      5-min Rain = 0
KDO2 130831Z 17010KT 29/21 A2987 RMK A01 T02870206  RH  061%=      5-min Rain = 0
KDO2 130832Z 17010KT 29/21 A2987 RMK A01 T02870207  RH  062%=      5-min Rain = 0
KDO2 130833Z 17008KT 29/21 A2987 RMK A01 T02870207  RH  062%=      5-min Rain = 0
KDO2 130834Z 17008KT 29/21 A2987 RMK A01 T02870206  RH  062%=      5-min Rain = 0
KDO2 130835Z 17012KT 29/21 A2987 RMK A01 T02870207  RH  062%=      5-min Rain = 0
KDO2 130836Z 17010KT 29/21 A2987 RMK A01 T02870207  RH  062%=      5-min Rain = 0
KDO2 130837Z 17012KT 29/21 A2987 RMK A01 T02870208  RH  062%=      5-min Rain = 0
KDO2 130838Z 17011KT 29/21 A2987 RMK A01 T02870208  RH  062%=      5-min Rain = 0
KDO2 130839Z 17009KT 29/21 A2987 RMK A01 T02870208  RH  062%=      5-min Rain = 0
KDO2 130840Z 16008KT 29/21 A2987 RMK A01 T02870208  RH  062%=      5-min Rain = 0
KDO2 130841Z 16011KT 29/21 A2987 RMK A01 T02860208  RH  062%=      5-min Rain = 0
KDO2 130842Z 16008KT 29/21 A2987 RMK A01 T02860208  RH  063%=      5-min Rain = 0
KDO2 130843Z 16009KT 29/21 A2987 RMK A01 T02860208  RH  063%=      5-min Rain = 0
KDO2 130844Z 17009KT 29/21 A2987 RMK A01 T02850208  RH  063%=      5-min Rain = 0
KDO2 130845Z 17011G16KT 29/21 A2987 RMK A01 T02850208  RH  063%=      5-min Rain = 0
KDO2 130846Z 17012KT 29/21 A2987 RMK A01 T02850209  RH  064%=      5-min Rain = 0
KDO2 130847Z 17011KT 29/21 A2987 RMK A01 T02860210  RH  063%=      5-min Rain = 0
KDO2 130848Z 16012KT 29/21 A2987 RMK A01 T02860210  RH  063%=      5-min Rain = 0
KDO2 130849Z 16011KT 29/21 A2987 RMK A01 T02860209  RH  063%=      5-min Rain = 0
KDO2 130850Z 16009KT 29/21 A2987 RMK A01 T02860209  RH  063%=      5-min Rain = 0
KDO2 130851Z 16009KT 29/21 A2987 RMK A01 T02860209  RH  063%=      5-min Rain = 0
KDO2 130852Z 17010KT 29/21 A2987 RMK A01 T02850209  RH  063%=      5-min Rain = 0
KDO2 130853Z 17010KT 29/21 A2987 RMK A01 T02850209  RH  064%=      5-min Rain = 0
KDO2 130854Z 16010KT 28/21 A2987 RMK A01 T02840210  RH  064%=      5-min Rain = 0
KDO2 130855Z 17012KT 28/21 A2987 RMK A01 T02840210  RH  064%=      5-min Rain = 0
KDO2 130856Z 16010KT 28/21 A2987 RMK A01 T02840210  RH  064%=      5-min Rain = 0
KDO2 130857Z 16011KT 28/21 A2987 RMK A01 T02840210  RH  064%=      5-min Rain = 0
KDO2 130858Z 17011KT 28/21 A2987 RMK A01 T02840210  RH  064%=      5-min Rain = 0
KDO2 130859Z 17012KT 28/21 A2987 RMK A01 T02840210  RH  064%=      5-min Rain = 0
KDO2 130900Z 16008KT 28/21 A2987 RMK A01 T02840211  RH  064%=      5-min Rain = 0
KDO2 130901Z 16008KT 28/21 A2987 RMK A01 T02840210  RH  064%=      5-min Rain = 0
KDO2 130902Z 16009KT 28/21 A2987 RMK A01 T02830210  RH  065%=      5-min Rain = 0
KDO2 130903Z 16009KT 28/21 A2987 RMK A01 T02830210  RH  065%=      5-min Rain = 0
KDO2 130904Z 16009KT 28/21 A2987 RMK A01 T02830211  RH  065%=      5-min Rain = 0
KDO2 130905Z 15008KT 28/21 A2987 RMK A01 T02820210  RH  065%=      5-min Rain = 0
KDO2 130906Z 16007KT 28/21 A2987 RMK A01 T02820211  RH  065%=      5-min Rain = 0
KDO2 130907Z 17008KT 28/21 A2987 RMK A01 T02810210  RH  065%=      5-min Rain = 0
KDO2 130908Z 16010KT 28/21 A2987 RMK A01 T02810211  RH  066%=      5-min Rain = 0
KDO2 130909Z 16010KT 28/21 A2987 RMK A01 T02810211  RH  066%=      5-min Rain = 0
KDO2 130910Z 16008KT 28/21 A2987 RMK A01 T02810211  RH  066%=      5-min Rain = 0
KDO2 130911Z 16008KT 28/21 A2987 RMK A01 T02810211  RH  066%=      5-min Rain = 0
KDO2 130912Z 14008KT 28/21 A2987 RMK A01 T02810211  RH  066%=      5-min Rain = 0
KDO2 130913Z 16009KT 28/21 A2987 RMK A01 T02800211  RH  066%=      5-min Rain = 0
KDO2 130914Z 16008KT 28/21 A2987 RMK A01 T02800212  RH  066%=      5-min Rain = 0
KDO2 130915Z 16010KT 28/21 A2987 RMK A01 T02800212  RH  066%=      5-min Rain = 0
KDO2 130916Z 16010KT 28/21 A2987 RMK A01 T02800212  RH  067%=      5-min Rain = 0
KDO2 130917Z 16009KT 28/21 A2987 RMK A01 T02800212  RH  067%=      5-min Rain = 0
KDO2 130918Z 16011KT 28/21 A2987 RMK A01 T02800212  RH  067%=      5-min Rain = 0
KDO2 130919Z 16008KT 28/21 A2987 RMK A01 T02800212  RH  067%=      5-min Rain = 0
KDO2 130920Z 16010KT 28/21 A2987 RMK A01 T02800212  RH  067%=      5-min Rain = 0
KDO2 130921Z 16010KT 28/21 A2987 RMK A01 T02800213  RH  067%=      5-min Rain = 0
KDO2 130922Z 16010KT 28/21 A2987 RMK A01 T02800213  RH  067%=      5-min Rain = 0
KDO2 130923Z 16010KT 28/21 A2987 RMK A01 T02800213  RH  067%=      5-min Rain = 0
KDO2 130924Z 16010KT 28/21 A2987 RMK A01 T02800213  RH  067%=      5-min Rain = 0
KDO2 130925Z 16009KT 28/21 A2987 RMK A01 T02800213  RH  067%=      5-min Rain = 0
KDO2 130926Z 16009KT 28/21 A2987 RMK A01 T02800214  RH  067%=      5-min Rain = 0
KDO2 130927Z 17010KT 28/21 A2987 RMK A01 T02800214  RH  067%=      5-min Rain = 0
KDO2 130928Z 17011KT 28/21 A2987 RMK A01 T02790214  RH  067%=      5-min Rain = 0
KDO2 130929Z 18012G17KT 28/21 A2987 RMK A01 T02790214  RH  068%=      5-min Rain = 0
KDO2 130930Z 17011KT 28/21 A2987 RMK A01 T02800214  RH  068%=      5-min Rain = 0
KDO2 130931Z 17010KT 28/21 A2987 RMK A01 T02800214  RH  067%=      5-min Rain = 0
KDO2 130932Z 16010KT 28/21 A2987 RMK A01 T02800214  RH  067%=      5-min Rain = 0
KDO2 130933Z 17009KT 28/21 A2987 RMK A01 T02790214  RH  068%=      5-min Rain = 0
KDO2 130934Z 18010KT 28/21 A2987 RMK A01 T02790214  RH  068%=      5-min Rain = 0
KDO2 130935Z 17009KT 28/21 A2987 RMK A01 T02790214  RH  068%=      5-min Rain = 0
KDO2 130936Z 17012KT 28/21 A2987 RMK A01 T02790214  RH  068%=      5-min Rain = 0
KDO2 130937Z 17014KT 28/22 A2987 RMK A01 T02790215  RH  068%=      5-min Rain = 0
KDO2 130938Z 17010KT 28/22 A2987 RMK A01 T02790215  RH  068%=      5-min Rain = 0
KDO2 130939Z 17011G16KT 28/22 A2987 RMK A01 T02790215  RH  068%=      5-min Rain = 0
KDO2 130940Z 17011KT 28/22 A2987 RMK A01 T02790216  RH  068%=      5-min Rain = 0
KDO2 130941Z 16011KT 28/22 A2987 RMK A01 T02790216  RH  068%=      5-min Rain = 0
KDO2 130942Z 16011KT 28/22 A2987 RMK A01 T02790216  RH  068%=      5-min Rain = 0
KDO2 130943Z 17011KT 28/22 A2987 RMK A01 T02790216  RH  068%=      5-min Rain = 0
KDO2 130944Z 18013KT 28/22 A2987 RMK A01 T02790216  RH  069%=      5-min Rain = 0
KDO2 130945Z 17010KT 28/22 A2987 RMK A01 T02790216  RH  069%=      5-min Rain = 0
KDO2 130946Z 17013KT 28/22 A2987 RMK A01 T02790216  RH  069%=      5-min Rain = 0
KDO2 130947Z 18012G17KT 28/22 A2987 RMK A01 T02790217  RH  069%=      5-min Rain = 0
KDO2 130948Z 17010KT 28/22 A2987 RMK A01 T02790217  RH  069%=      5-min Rain = 0
KDO2 130949Z 17011KT 28/22 A2987 RMK A01 T02790216  RH  069%=      5-min Rain = 0
KDO2 130950Z 17011KT 28/22 A2987 RMK A01 T02780217  RH  069%=      5-min Rain = 0
KDO2 130951Z 16009KT 28/22 A2987 RMK A01 T02790217  RH  069%=      5-min Rain = 0
KDO2 130952Z 17012KT 28/22 A2987 RMK A01 T02780217  RH  069%=      5-min Rain = 0
KDO2 130953Z 17011KT 28/22 A2987 RMK A01 T02780217  RH  069%=      5-min Rain = 0
KDO2 130954Z 17012KT 28/22 A2987 RMK A01 T02780217  RH  069%=      5-min Rain = 0
KDO2 130955Z 17011KT 28/22 A2987 RMK A01 T02780217  RH  069%=      5-min Rain = 0
KDO2 130956Z 17011KT 28/22 A2987 RMK A01 T02780217  RH  069%=      5-min Rain = 0
KDO2 130957Z 17012G17KT 28/22 A2987 RMK A01 T02780217  RH  069%=      5-min Rain = 0
KDO2 130958Z 17010KT 28/22 A2987 RMK A01 T02770217  RH  069%=      5-min Rain = 0
KDO2 130959Z 18011KT 28/22 A2987 RMK A01 T02770217  RH  069%=      5-min Rain = 0
KDO2 131000Z 17009KT 28/22 A2987 RMK A01 T02770217  RH  070%=      5-min Rain = 0
KDO2 131001Z 17009KT 28/22 A2987 RMK A01 T02770217  RH  070%=      5-min Rain = 0
KDO2 131002Z 18012KT 28/22 A2987 RMK A01 T02770217  RH  070%=      5-min Rain = 0
KDO2 131003Z 17012G17KT 28/22 A2987 RMK A01 T02770217  RH  070%=      5-min Rain = 0
KDO2 131004Z 17013KT 28/22 A2988 RMK A01 T02770217  RH  070%=      5-min Rain = 0
KDO2 131005Z 18013KT 28/22 A2988 RMK A01 T02770217  RH  070%=      5-min Rain = 0
KDO2 131006Z 17012KT 28/22 A2988 RMK A01 T02770217  RH  070%=      5-min Rain = 0
KDO2 131007Z 17011KT 28/22 A2988 RMK A01 T02770217  RH  070%=      5-min Rain = 0
KDO2 131008Z 17014KT 28/22 A2988 RMK A01 T02770217  RH  070%=      5-min Rain = 0
KDO2 131009Z 17011KT 28/22 A2988 RMK A01 T02770217  RH  070%=      5-min Rain = 0
KDO2 131010Z 17010KT 28/22 A2988 RMK A01 T02770217  RH  070%=      5-min Rain = 0
KDO2 131011Z 17011KT 28/22 A2988 RMK A01 T02770218  RH  070%=      5-min Rain = 0
KDO2 131012Z 17012KT 28/22 A2988 RMK A01 T02760217  RH  070%=      5-min Rain = 0
KDO2 131013Z 17011KT 28/22 A2988 RMK A01 T02760217  RH  070%=      5-min Rain = 0
KDO2 131014Z 17012KT 28/22 A2988 RMK A01 T02760217  RH  070%=      5-min Rain = 0
KDO2 131015Z 17010KT 28/22 A2988 RMK A01 T02760217  RH  070%=      5-min Rain = 0
KDO2 131016Z 17012KT 28/22 A2988 RMK A01 T02760218  RH  070%=      5-min Rain = 0
KDO2 131017Z 18012KT 28/22 A2988 RMK A01 T02760218  RH  070%=      5-min Rain = 0
KDO2 131018Z 17011KT 28/22 A2988 RMK A01 T02760217  RH  070%=      5-min Rain = 0
KDO2 131019Z 17012KT 28/22 A2988 RMK A01 T02760218  RH  070%=      5-min Rain = 0
KDO2 131020Z 17012KT 28/22 A2988 RMK A01 T02760217  RH  070%=      5-min Rain = 0
KDO2 131021Z 18011KT 28/22 A2988 RMK A01 T02760218  RH  070%=      5-min Rain = 0
KDO2 131022Z 18009KT 28/22 A2988 RMK A01 T02760218  RH  070%=      5-min Rain = 0
KDO2 131023Z 17010KT 28/22 A2988 RMK A01 T02760217  RH  070%=      5-min Rain = 0
KDO2 131024Z 18012KT 28/22 A2988 RMK A01 T02750217  RH  071%=      5-min Rain = 0
KDO2 131025Z 18010KT 28/22 A2988 RMK A01 T02750217  RH  071%=      5-min Rain = 0
KDO2 131026Z 18012KT 28/22 A2988 RMK A01 T02750217  RH  071%=      5-min Rain = 0
KDO2 131027Z 17010KT 28/22 A2988 RMK A01 T02750217  RH  071%=      5-min Rain = 0
KDO2 131028Z 17011KT 28/22 A2988 RMK A01 T02750217  RH  071%=      5-min Rain = 0
KDO2 131029Z 18012KT 28/22 A2988 RMK A01 T02750217  RH  071%=      5-min Rain = 0
KDO2 131030Z 18010KT 28/22 A2988 RMK A01 T02750217  RH  071%=      5-min Rain = 0
KDO2 131031Z 18013KT 28/22 A2988 RMK A01 T02750217  RH  071%=      5-min Rain = 0
KDO2 131032Z 17009G15KT 28/22 A2988 RMK A01 T02750217  RH  070%=      5-min Rain = 0
KDO2 131033Z 18010KT 28/22 A2988 RMK A01 T02760217  RH  070%=      5-min Rain = 0
KDO2 131034Z 17008KT 28/22 A2988 RMK A01 T02760218  RH  071%=      5-min Rain = 0
KDO2 131035Z 18008KT 28/22 A2988 RMK A01 T02750217  RH  071%=      5-min Rain = 0
KDO2 131036Z 17008KT 27/22 A2988 RMK A01 T02740217  RH  071%=      5-min Rain = 0
KDO2 131037Z 18009KT 27/22 A2988 RMK A01 T02740217  RH  071%=      5-min Rain = 0
KDO2 131038Z 17009KT 27/22 A2988 RMK A01 T02740218  RH  071%=      5-min Rain = 0
KDO2 131039Z 17009KT 27/22 A2988 RMK A01 T02740217  RH  071%=      5-min Rain = 0
KDO2 131040Z 17011KT 27/22 A2988 RMK A01 T02740218  RH  071%=      5-min Rain = 0
KDO2 131041Z 17010KT 27/22 A2988 RMK A01 T02740218  RH  071%=      5-min Rain = 0
KDO2 131042Z 18008KT 27/22 A2988 RMK A01 T02740217  RH  071%=      5-min Rain = 0
KDO2 131043Z 18008G13KT 27/22 A2988 RMK A01 T02740217  RH  071%=      5-min Rain = 0
KDO2 131044Z 18011KT 27/22 A2988 RMK A01 T02730217  RH  071%=      5-min Rain = 0
KDO2 131045Z 17010KT 27/22 A2988 RMK A01 T02740217  RH  071%=      5-min Rain = 0
KDO2 131046Z 17009KT 27/22 A2988 RMK A01 T02740217  RH  071%=      5-min Rain = 0
KDO2 131047Z 17010KT 27/22 A2988 RMK A01 T02730217  RH  071%=      5-min Rain = 0
KDO2 131048Z 17008KT 27/22 A2988 RMK A01 T02730217  RH  071%=      5-min Rain = 0
KDO2 131049Z 17009KT 27/22 A2988 RMK A01 T02740217  RH  071%=      5-min Rain = 0
KDO2 131050Z 17010KT 27/22 A2988 RMK A01 T02730218  RH  072%=      5-min Rain = 0
KDO2 131051Z 16008KT 27/22 A2988 RMK A01 T02740218  RH  072%=      5-min Rain = 0
KDO2 131052Z 17009KT 27/22 A2988 RMK A01 T02730218  RH  072%=      5-min Rain = 0
KDO2 131053Z 17009KT 27/22 A2988 RMK A01 T02730217  RH  072%=      5-min Rain = 0
KDO2 131054Z 17009KT 27/22 A2988 RMK A01 T02730217  RH  072%=      5-min Rain = 0
KDO2 131055Z 17008KT 27/22 A2988 RMK A01 T02730217  RH  072%=      5-min Rain = 0
KDO2 131056Z 17007KT 27/22 A2988 RMK A01 T02730217  RH  072%=      5-min Rain = 0
KDO2 131057Z 17008G13KT 27/22 A2988 RMK A01 T02730217  RH  072%=      5-min Rain = 0
KDO2 131058Z 16009KT 27/22 A2988 RMK A01 T02720217  RH  072%=      5-min Rain = 0
KDO2 131059Z 16007KT 27/22 A2989 RMK A01 T02730217  RH  072%=      5-min Rain = 0
KDO2 131100Z 16008KT 27/22 A2989 RMK A01 T02730217  RH  072%=      5-min Rain = 0
KDO2 131101Z 17009KT 27/22 A2989 RMK A01 T02730217  RH  072%=      5-min Rain = 0
KDO2 131102Z 16008KT 27/22 A2989 RMK A01 T02720217  RH  072%=      5-min Rain = 0
KDO2 131103Z 16008KT 27/22 A2989 RMK A01 T02720217  RH  072%=      5-min Rain = 0
KDO2 131104Z 17006KT 27/22 A2989 RMK A01 T02720217  RH  072%=      5-min Rain = 0
KDO2 131105Z 16006KT 27/22 A2989 RMK A01 T02720217  RH  072%=      5-min Rain = 0
KDO2 131106Z 16007KT 27/22 A2989 RMK A01 T02720217  RH  072%=      5-min Rain = 0
KDO2 131107Z 17006KT 27/22 A2989 RMK A01 T02720217  RH  072%=      5-min Rain = 0
KDO2 131108Z 17006KT 27/22 A2989 RMK A01 T02710217  RH  072%=      5-min Rain = 0
KDO2 131109Z 16008KT 27/22 A2989 RMK A01 T02710217  RH  073%=      5-min Rain = 0
KDO2 131110Z 17007KT 27/22 A2989 RMK A01 T02710217  RH  073%=      5-min Rain = 0
KDO2 131111Z 16005KT 27/22 A2989 RMK A01 T02710217  RH  072%=      5-min Rain = 0
KDO2 131112Z 16005KT 27/22 A2989 RMK A01 T02710217  RH  072%=      5-min Rain = 0
KDO2 131113Z 16007KT 27/22 A2989 RMK A01 T02710217  RH  073%=      5-min Rain = 0
KDO2 131114Z 16007KT 27/22 A2989 RMK A01 T02700217  RH  073%=      5-min Rain = 0
KDO2 131115Z 17005KT 27/22 A2989 RMK A01 T02700217  RH  073%=      5-min Rain = 0
KDO2 131116Z 16005KT 27/22 A2989 RMK A01 T02700217  RH  073%=      5-min Rain = 0
KDO2 131117Z 16005KT 27/22 A2989 RMK A01 T02700218  RH  073%=      5-min Rain = 0
KDO2 131118Z 16004KT 27/22 A2989 RMK A01 T02700217  RH  073%=      5-min Rain = 0
KDO2 131119Z 17005KT 27/22 A2989 RMK A01 T02690217  RH  073%=      5-min Rain = 0
KDO2 131120Z 17005KT 27/22 A2989 RMK A01 T02690217  RH  073%=      5-min Rain = 0
KDO2 131121Z 17004KT 27/22 A2989 RMK A01 T02690217  RH  073%=      5-min Rain = 0
KDO2 131122Z 17004KT 27/22 A2989 RMK A01 T02680217  RH  073%=      5-min Rain = 0
KDO2 131123Z 17006KT 27/22 A2989 RMK A01 T02680217  RH  074%=      5-min Rain = 0
KDO2 131124Z 16005KT 27/22 A2989 RMK A01 T02690217  RH  073%=      5-min Rain = 0
KDO2 131125Z 16005KT 27/22 A2989 RMK A01 T02690217  RH  073%=      5-min Rain = 0
KDO2 131126Z 17005KT 27/22 A2989 RMK A01 T02680217  RH  073%=      5-min Rain = 0
KDO2 131127Z 16005KT 27/22 A2989 RMK A01 T02680217  RH  074%=      5-min Rain = 0
KDO2 131128Z 18005KT 27/22 A2989 RMK A01 T02680217  RH  074%=      5-min Rain = 0
KDO2 131129Z 17007KT 27/22 A2989 RMK A01 T02680217  RH  073%=      5-min Rain = 0
KDO2 131130Z 17006KT 27/22 A2989 RMK A01 T02680216  RH  073%=      5-min Rain = 0
KDO2 131131Z 17006KT 27/22 A2989 RMK A01 T02680217  RH  073%=      5-min Rain = 0
KDO2 131132Z 17006KT 27/22 A2989 RMK A01 T02680216  RH  073%=      5-min Rain = 0
KDO2 131133Z 16005KT 27/22 A299 RMK A01 T02680216  RH  073%=      5-min Rain = 0
KDO2 131134Z 15004KT 27/22 A299 RMK A01 T02680216  RH  073%=      5-min Rain = 0
KDO2 131135Z 16005KT 27/22 A299 RMK A01 T02680217  RH  073%=      5-min Rain = 0
KDO2 131136Z 19005KT 27/22 A299 RMK A01 T02680216  RH  073%=      5-min Rain = 0
KDO2 131137Z 17005KT 27/22 A299 RMK A01 T02680216  RH  073%=      5-min Rain = 0
KDO2 131138Z 18004KT 27/22 A299 RMK A01 T02680216  RH  073%=      5-min Rain = 0
KDO2 131139Z 17003KT 27/22 A299 RMK A01 T02680216  RH  073%=      5-min Rain = 0
KDO2 131140Z 18003KT 27/22 A299 RMK A01 T02680216  RH  073%=      5-min Rain = 0
KDO2 131141Z 16003KT 27/22 A299 RMK A01 T02670216  RH  074%=      5-min Rain = 0
KDO2 131142Z 17003KT 27/22 A299 RMK A01 T02670216  RH  074%=      5-min Rain = 0
KDO2 131143Z 15002KT 27/22 A299 RMK A01 T02660216  RH  074%=      5-min Rain = 0
KDO2 131144Z 16003KT 27/22 A299 RMK A01 T02660216  RH  074%=      5-min Rain = 0
KDO2 131145Z 16004KT 27/22 A299 RMK A01 T02660216  RH  074%=      5-min Rain = 0
KDO2 131146Z 18004KT 27/22 A299 RMK A01 T02660216  RH  074%=      5-min Rain = 0
KDO2 131147Z 15004KT 27/22 A299 RMK A01 T02650216  RH  074%=      5-min Rain = 0
KDO2 131148Z 15003KT 27/22 A299 RMK A01 T02650216  RH  074%=      5-min Rain = 0
KDO2 131149Z 19004KT 26/22 A299 RMK A01 T02640216  RH  075%=      5-min Rain = 0
KDO2 131150Z 18004KT 26/22 A299 RMK A01 T02640216  RH  075%=      5-min Rain = 0
KDO2 131151Z 16003KT 26/22 A299 RMK A01 T02630215  RH  075%=      5-min Rain = 0
KDO2 131152Z 17004KT 26/22 A299 RMK A01 T02630216  RH  075%=      5-min Rain = 0
KDO2 131153Z 16003KT 26/22 A299 RMK A01 T02640216  RH  075%=      5-min Rain = 0
KDO2 131154Z 16004KT 26/22 A299 RMK A01 T02640216  RH  075%=      5-min Rain = 0
KDO2 131155Z 17004KT 26/22 A299 RMK A01 T02640216  RH  075%=      5-min Rain = 0
KDO2 131156Z 19003KT 26/22 A299 RMK A01 T02640216  RH  075%=      5-min Rain = 0
KDO2 131157Z 18003KT 26/22 A299 RMK A01 T02630215  RH  075%=      5-min Rain = 0
KDO2 131158Z 16003KT 26/22 A299 RMK A01 T02620215  RH  075%=      5-min Rain = 0
KDO2 131159Z 17003KT 26/22 A299 RMK A01 T02620215  RH  076%=      5-min Rain = 0
KDO2 131200Z 18003KT 26/22 A2991 RMK A01 T02620215  RH  076%=      5-min Rain = 0
KDO2 131201Z 17004KT 26/22 A2991 RMK A01 T02610215  RH  076%=      5-min Rain = 0
KDO2 131202Z 18005KT 26/22 A2991 RMK A01 T02610215  RH  076%=      5-min Rain = 0
KDO2 131203Z 17004KT 26/22 A2991 RMK A01 T02620216  RH  076%=      5-min Rain = 0
KDO2 131204Z 18003KT 26/22 A2991 RMK A01 T02640216  RH  075%=      5-min Rain = 0
KDO2 131205Z 19003KT 26/22 A2991 RMK A01 T02640216  RH  075%=      5-min Rain = 0
KDO2 131206Z 17004KT 27/22 A2991 RMK A01 T02650216  RH  075%=      5-min Rain = 0
KDO2 131207Z 18005KT 27/22 A2991 RMK A01 T02650216  RH  075%=      5-min Rain = 0
KDO2 131208Z 16004KT 26/22 A2991 RMK A01 T02640216  RH  075%=      5-min Rain = 0
KDO2 131209Z 15003KT 26/22 A2991 RMK A01 T02630215  RH  075%=      5-min Rain = 0
KDO2 131210Z 15005KT 26/22 A2991 RMK A01 T02630215  RH  075%=      5-min Rain = 0
KDO2 131211Z 16005KT 26/22 A2991 RMK A01 T02630215  RH  075%=      5-min Rain = 0
KDO2 131212Z 17004KT 26/22 A2991 RMK A01 T02630215  RH  075%=      5-min Rain = 0
KDO2 131213Z 17004KT 26/22 A2991 RMK A01 T02630215  RH  075%=      5-min Rain = 0
KDO2 131214Z 15005KT 26/22 A2991 RMK A01 T02620215  RH  075%=      5-min Rain = 0
KDO2 131215Z 14004KT 26/22 A2991 RMK A01 T02610215  RH  076%=      5-min Rain = 0
KDO2 131216Z 16007KT 26/22 A2991 RMK A01 T02620215  RH  076%=      5-min Rain = 0
KDO2 131217Z 17007KT 26/22 A2991 RMK A01 T02630215  RH  075%=      5-min Rain = 0
KDO2 131218Z 16005KT 27/22 A2991 RMK A01 T02650216  RH  074%=      5-min Rain = 0
KDO2 131219Z 16005KT 27/22 A2991 RMK A01 T02660216  RH  074%=      5-min Rain = 0
KDO2 131220Z 17007KT 27/22 A2991 RMK A01 T02660216  RH  074%=      5-min Rain = 0
KDO2 131221Z 15004KT 27/22 A2991 RMK A01 T02660216  RH  074%=      5-min Rain = 0
KDO2 131222Z 16004KT 27/22 A2991 RMK A01 T02660216  RH  074%=      5-min Rain = 0
KDO2 131223Z 18005KT 27/22 A2991 RMK A01 T02660215  RH  073%=      5-min Rain = 0
KDO2 131224Z 17003KT 27/22 A2991 RMK A01 T02670215  RH  073%=      5-min Rain = 0
KDO2 131225Z 14004KT 27/22 A2991 RMK A01 T02670215  RH  073%=      5-min Rain = 0
KDO2 131226Z 15004KT 27/22 A2991 RMK A01 T02670215  RH  073%=      5-min Rain = 0
KDO2 131227Z 13003KT 27/22 A2991 RMK A01 T02680216  RH  073%=      5-min Rain = 0
KDO2 131228Z 15003KT 27/22 A2991 RMK A01 T02670216  RH  073%=      5-min Rain = 0
KDO2 131229Z 17003KT 27/22 A2991 RMK A01 T02670216  RH  073%=      5-min Rain = 0
KDO2 131230Z 14004KT 27/22 A2991 RMK A01 T02670216  RH  073%=      5-min Rain = 0
KDO2 131231Z 11003KT 27/22 A2991 RMK A01 T02670216  RH  073%=      5-min Rain = 0
KDO2 131232Z 14003KT 27/22 A2991 RMK A01 T02670216  RH  073%=      5-min Rain = 0
KDO2 131233Z 16005KT 27/22 A2991 RMK A01 T02670216  RH  074%=      5-min Rain = 0
KDO2 131234Z 15006KT 27/22 A2991 RMK A01 T02670216  RH  073%=      5-min Rain = 0
KDO2 131235Z 10003KT 27/22 A2991 RMK A01 T02670215  RH  073%=      5-min Rain = 0
KDO2 131236Z 08003KT 27/22 A2991 RMK A01 T02670216  RH  073%=      5-min Rain = 0
KDO2 131237Z 07003KT 27/22 A2992 RMK A01 T02680217  RH  074%=      5-min Rain = 0
KDO2 131238Z 08004KT 27/22 A2992 RMK A01 T02670217  RH  074%=      5-min Rain = 0
KDO2 131239Z 06004KT 27/22 A2991 RMK A01 T02670216  RH  074%=      5-min Rain = 0
KDO2 131240Z 07004KT 27/22 A2992 RMK A01 T02670217  RH  074%=      5-min Rain = 0
KDO2 131241Z 09003KT 27/22 A2992 RMK A01 T02670217  RH  074%=      5-min Rain = 0
KDO2 131242Z 09003KT 27/22 A2992 RMK A01 T02670217  RH  074%=      5-min Rain = 0
KDO2 131243Z 09004KT 27/22 A2992 RMK A01 T02670218  RH  074%=      5-min Rain = 0
KDO2 131244Z 09004KT 27/22 A2992 RMK A01 T02670217  RH  074%=      5-min Rain = 0
KDO2 131245Z 08003KT 27/22 A2992 RMK A01 T02670217  RH  074%=      5-min Rain = 0
KDO2 131246Z 10004KT 27/22 A2992 RMK A01 T02670217  RH  074%=      5-min Rain = 0
KDO2 131247Z 12004KT 27/22 A2992 RMK A01 T02680216  RH  073%=      5-min Rain = 0
KDO2 131248Z 11003KT 27/22 A2992 RMK A01 T02680217  RH  073%=      5-min Rain = 0
KDO2 131249Z 12005KT 27/22 A2992 RMK A01 T02680217  RH  074%=      5-min Rain = 0
KDO2 131250Z 12006KT 27/22 A2992 RMK A01 T02680217  RH  073%=      5-min Rain = 0
KDO2 131251Z 12005KT 27/22 A2992 RMK A01 T02690217  RH  073%=      5-min Rain = 0
KDO2 131252Z 12006KT 27/22 A2992 RMK A01 T02690217  RH  073%=      5-min Rain = 0
KDO2 131253Z 12007KT 27/22 A2992 RMK A01 T02690217  RH  073%=      5-min Rain = 0
KDO2 131254Z 12007KT 27/22 A2992 RMK A01 T02690215  RH  072%=      5-min Rain = 0
KDO2 131255Z 15008KT 27/22 A2992 RMK A01 T02700216  RH  072%=      5-min Rain = 0
KDO2 131256Z 15008KT 27/22 A2992 RMK A01 T02700217  RH  073%=      5-min Rain = 0
KDO2 131257Z 16007KT 27/22 A2992 RMK A01 T02700218  RH  073%=      5-min Rain = 0
KDO2 131258Z 16006KT 27/22 A2992 RMK A01 T02700218  RH  073%=      5-min Rain = 0
KDO2 131259Z 17007KT 27/22 A2992 RMK A01 T02700218  RH  073%=      5-min Rain = 0
KDO2 131300Z 16007KT 27/22 A2992 RMK A01 T02690218  RH  073%=      5-min Rain = 0
KDO2 131301Z 16007KT 27/22 A2992 RMK A01 T02700218  RH  073%=      5-min Rain = 0
KDO2 131302Z 17008KT 27/22 A2992 RMK A01 T02690217  RH  073%=      5-min Rain = 0
KDO2 131303Z 17008KT 27/22 A2992 RMK A01 T02700217  RH  073%=      5-min Rain = 0
KDO2 131304Z 16007KT 27/22 A2992 RMK A01 T02700218  RH  073%=      5-min Rain = 0
KDO2 131305Z 16008KT 27/22 A2992 RMK A01 T02700218  RH  073%=      5-min Rain = 0
KDO2 131306Z 17007KT 27/22 A2992 RMK A01 T02700219  RH  074%=      5-min Rain = 0
KDO2 131307Z 16008KT 27/22 A2992 RMK A01 T02700219  RH  074%=      5-min Rain = 0
KDO2 131308Z 17008KT 27/22 A2992 RMK A01 T02700219  RH  073%=      5-min Rain = 0
KDO2 131309Z 16008KT 27/22 A2992 RMK A01 T02710218  RH  073%=      5-min Rain = 0
KDO2 131310Z 16007KT 27/22 A2992 RMK A01 T02710219  RH  073%=      5-min Rain = 0
KDO2 131311Z 15010KT 27/22 A2992 RMK A01 T02710219  RH  073%=      5-min Rain = 0
KDO2 131312Z 17009KT 27/22 A2992 RMK A01 T02710218  RH  073%=      5-min Rain = 0
KDO2 131313Z 17009KT 27/22 A2992 RMK A01 T02720219  RH  073%=      5-min Rain = 0
KDO2 131314Z 17009KT 27/22 A2992 RMK A01 T02720217  RH  072%=      5-min Rain = 0
KDO2 131315Z 16007KT 27/22 A2992 RMK A01 T02720218  RH  072%=      5-min Rain = 0
KDO2 131316Z 16007KT 27/22 A2992 RMK A01 T02720219  RH  073%=      5-min Rain = 0
KDO2 131317Z 18008KT 27/22 A2992 RMK A01 T02720217  RH  072%=      5-min Rain = 0
KDO2 131318Z 17008KT 27/22 A2992 RMK A01 T02730217  RH  072%=      5-min Rain = 0
KDO2 131319Z 17005KT 27/22 A2992 RMK A01 T02730219  RH  072%=      5-min Rain = 0
KDO2 131320Z 17005KT 27/22 A2992 RMK A01 T02730220  RH  073%=      5-min Rain = 0
KDO2 131321Z 16005KT 27/22 A2992 RMK A01 T02730219  RH  072%=      5-min Rain = 0
KDO2 131322Z 16005KT 27/22 A2992 RMK A01 T02740219  RH  072%=      5-min Rain = 0
KDO2 131323Z 17006KT 27/22 A2993 RMK A01 T02740219  RH  072%=      5-min Rain = 0
KDO2 131324Z 16004KT 28/22 A2993 RMK A01 T02750219  RH  072%=      5-min Rain = 0
KDO2 131325Z 16006KT 28/22 A2993 RMK A01 T02750218  RH  071%=      5-min Rain = 0
KDO2 131326Z 17007KT 28/22 A2993 RMK A01 T02760218  RH  071%=      5-min Rain = 0
KDO2 131327Z 15004KT 28/22 A2993 RMK A01 T02760218  RH  070%=      5-min Rain = 0
KDO2 131328Z 16004KT 28/22 A2993 RMK A01 T02770217  RH  070%=      5-min Rain = 0
KDO2 131329Z 17004KT 28/22 A2993 RMK A01 T02770218  RH  070%=      5-min Rain = 0
KDO2 131330Z 15004KT 28/22 A2993 RMK A01 T02770219  RH  071%=      5-min Rain = 0
KDO2 131331Z 14003KT 28/22 A2993 RMK A01 T02780219  RH  070%=      5-min Rain = 0
KDO2 131332Z 14004KT 28/22 A2993 RMK A01 T02780218  RH  070%=      5-min Rain = 0
KDO2 131333Z 12004KT 28/22 A2993 RMK A01 T02780219  RH  070%=      5-min Rain = 0
KDO2 131334Z 13004KT 28/22 A2993 RMK A01 T02780218  RH  070%=      5-min Rain = 0
KDO2 131335Z 11004KT 28/22 A2993 RMK A01 T02790220  RH  070%=      5-min Rain = 0
KDO2 131336Z 12004KT 28/22 A2993 RMK A01 T02790218  RH  069%=      5-min Rain = 0
KDO2 131337Z 13004KT 28/22 A2993 RMK A01 T02790219  RH  070%=      5-min Rain = 0
KDO2 131338Z 16006KT 28/22 A2993 RMK A01 T02800218  RH  069%=      5-min Rain = 0
KDO2 131339Z 15006KT 28/22 A2993 RMK A01 T02800219  RH  069%=      5-min Rain = 0
KDO2 131340Z 14005KT 28/22 A2993 RMK A01 T02800219  RH  069%=      5-min Rain = 0
KDO2 131341Z 16005KT 28/22 A2993 RMK A01 T02800221  RH  070%=      5-min Rain = 0
KDO2 131342Z 15007KT 28/22 A2993 RMK A01 T02800220  RH  070%=      5-min Rain = 0
KDO2 131343Z 14006KT 28/22 A2993 RMK A01 T02800219  RH  070%=      5-min Rain = 0
KDO2 131344Z 14006KT 28/22 A2993 RMK A01 T02800219  RH  070%=      5-min Rain = 0
KDO2 131345Z 16006KT 28/22 A2993 RMK A01 T02800220  RH  070%=      5-min Rain = 0
KDO2 131346Z 16005KT 28/22 A2993 RMK A01 T02800216  RH  068%=      5-min Rain = 0
KDO2 131347Z 16006KT 28/22 A2993 RMK A01 T02800215  RH  068%=      5-min Rain = 0
KDO2 131348Z 16007KT 28/22 A2993 RMK A01 T02810218  RH  069%=      5-min Rain = 0
KDO2 131349Z 16006KT 28/22 A2993 RMK A01 T02810217  RH  068%=      5-min Rain = 0
KDO2 131350Z 15005KT 28/22 A2993 RMK A01 T02810218  RH  068%=      5-min Rain = 0
KDO2 131351Z 15005KT 28/22 A2993 RMK A01 T02810219  RH  069%=      5-min Rain = 0
KDO2 131352Z 17005KT 28/22 A2993 RMK A01 T02820220  RH  069%=      5-min Rain = 0
KDO2 131353Z 15005KT 28/22 A2993 RMK A01 T02830218  RH  068%=      5-min Rain = 0
KDO2 131354Z 17005KT 28/22 A2994 RMK A01 T02830218  RH  068%=      5-min Rain = 0
KDO2 131355Z 16009KT 28/22 A2994 RMK A01 T02840218  RH  067%=      5-min Rain = 0
KDO2 131356Z 16006KT 28/21 A2994 RMK A01 T02840212  RH  065%=      5-min Rain = 0
KDO2 131357Z 16005KT 29/21 A2994 RMK A01 T02850213  RH  065%=      5-min Rain = 0
KDO2 131358Z 15005KT 29/22 A2994 RMK A01 T02850215  RH  066%=      5-min Rain = 0
KDO2 131359Z 14005KT 29/22 A2994 RMK A01 T02850218  RH  067%=      5-min Rain = 0
KDO2 131400Z 14006KT 29/22 A2994 RMK A01 T02860217  RH  066%=      5-min Rain = 0
KDO2 131401Z 14006KT 29/22 A2994 RMK A01 T02860216  RH  066%=      5-min Rain = 0
KDO2 131402Z 15005KT 29/22 A2994 RMK A01 T02860218  RH  067%=      5-min Rain = 0
KDO2 131403Z 14004KT 29/22 A2995 RMK A01 T02870218  RH  066%=      5-min Rain = 0
KDO2 131404Z 14006KT 29/22 A2995 RMK A01 T02870217  RH  066%=      5-min Rain = 0
KDO2 131405Z 14005KT 29/22 A2995 RMK A01 T02880216  RH  065%=      5-min Rain = 0
KDO2 131406Z 13003KT 29/21 A2995 RMK A01 T02880214  RH  064%=      5-min Rain = 0
KDO2 131407Z 11002KT 29/21 A2995 RMK A01 T02880214  RH  064%=      5-min Rain = 0
KDO2 131408Z 14002KT 29/22 A2995 RMK A01 T02880216  RH  065%=      5-min Rain = 0
KDO2 131409Z 14004KT 29/22 A2995 RMK A01 T02900217  RH  065%=      5-min Rain = 0
KDO2 131410Z 15005KT 29/22 A2995 RMK A01 T02900217  RH  065%=      5-min Rain = 0
KDO2 131411Z 14003KT 29/22 A2995 RMK A01 T02910216  RH  064%=      5-min Rain = 0
KDO2 131412Z 14003KT 29/22 A2995 RMK A01 T02910217  RH  064%=      5-min Rain = 0
KDO2 131413Z 13004KT 29/22 A2995 RMK A01 T02910217  RH  064%=      5-min Rain = 0
KDO2 131414Z 14003KT 29/22 A2995 RMK A01 T02910215  RH  063%=      5-min Rain = 0
KDO2 131415Z 16004KT 29/22 A2995 RMK A01 T02910219  RH  065%=      5-min Rain = 0
KDO2 131416Z 16003KT 29/22 A2995 RMK A01 T02930219  RH  064%=      5-min Rain = 0
KDO2 131417Z 10001KT 29/22 A2995 RMK A01 T02930216  RH  063%=      5-min Rain = 0
KDO2 131418Z 18003KT 29/22 A2995 RMK A01 T02930217  RH  063%=      5-min Rain = 0
KDO2 131419Z 14004KT 29/22 A2995 RMK A01 T02930216  RH  063%=      5-min Rain = 0
KDO2 131420Z 13003KT 29/21 A2995 RMK A01 T02930213  RH  062%=      5-min Rain = 0
KDO2 131421Z 13002KT 29/21 A2995 RMK A01 T02930210  RH  061%=      5-min Rain = 0
KDO2 131422Z 11002KT 29/21 A2995 RMK A01 T02930211  RH  061%=      5-min Rain = 0
KDO2 131423Z 12004KT 29/21 A2995 RMK A01 T02940214  RH  062%=      5-min Rain = 0
KDO2 131424Z 13004KT 30/21 A2995 RMK A01 T02950213  RH  061%=      5-min Rain = 0
KDO2 131425Z 13004KT 30/21 A2995 RMK A01 T02950213  RH  062%=      5-min Rain = 0
KDO2 131426Z 14003KT 29/21 A2995 RMK A01 T02940214  RH  062%=      5-min Rain = 0
KDO2 131427Z 14004KT 29/21 A2995 RMK A01 T02940214  RH  062%=      5-min Rain = 0
KDO2 131428Z 14004KT 30/21 A2995 RMK A01 T02950212  RH  061%=      5-min Rain = 0
KDO2 131429Z 14005KT 30/21 A2995 RMK A01 T02950214  RH  062%=      5-min Rain = 0
KDO2 131430Z 16005KT 30/22 A2995 RMK A01 T02960216  RH  062%=      5-min Rain = 0
KDO2 131431Z 16005KT 30/21 A2995 RMK A01 T02960211  RH  060%=      5-min Rain = 0
KDO2 131432Z 14006KT 30/21 A2995 RMK A01 T02960214  RH  061%=      5-min Rain = 0
KDO2 131433Z 15006KT 30/21 A2995 RMK A01 T02960212  RH  061%=      5-min Rain = 0
KDO2 131434Z 14004KT 30/21 A2995 RMK A01 T02960211  RH  060%=      5-min Rain = 0
KDO2 131435Z 12003KT 30/21 A2995 RMK A01 T02960211  RH  060%=      5-min Rain = 0
KDO2 131436Z 12003KT 30/21 A2995 RMK A01 T02960209  RH  060%=      5-min Rain = 0
KDO2 131437Z 13004KT 30/21 A2995 RMK A01 T02970212  RH  060%=      5-min Rain = 0
KDO2 131438Z 14005KT 30/21 A2995 RMK A01 T02980214  RH  060%=      5-min Rain = 0
KDO2 131439Z 14006KT 30/21 A2995 RMK A01 T02990213  RH  060%=      5-min Rain = 0
KDO2 131440Z 15006KT 30/21 A2995 RMK A01 T03000211  RH  059%=      5-min Rain = 0
KDO2 131441Z 14006KT 30/21 A2995 RMK A01 T03000213  RH  060%=      5-min Rain = 0
KDO2 131442Z 15007KT 30/21 A2995 RMK A01 T03000212  RH  059%=      5-min Rain = 0
KDO2 131443Z 16005KT 30/21 A2995 RMK A01 T03000208  RH  058%=      5-min Rain = 0
KDO2 131444Z 17005KT 30/21 A2995 RMK A01 T02990211  RH  059%=      5-min Rain = 0
KDO2 131445Z 16004KT 30/21 A2995 RMK A01 T03000210  RH  059%=      5-min Rain = 0
KDO2 131446Z 17003KT 30/21 A2995 RMK A01 T03000207  RH  057%=      5-min Rain = 0
KDO2 131447Z 13003KT 30/21 A2995 RMK A01 T03000209  RH  058%=      5-min Rain = 0
KDO2 131448Z 17005KT 30/21 A2996 RMK A01 T03000214  RH  060%=      5-min Rain = 0
KDO2 131449Z 17004KT 30/21 A2996 RMK A01 T03010209  RH  058%=      5-min Rain = 0
KDO2 131450Z 16003KT 30/21 A2996 RMK A01 T03010213  RH  059%=      5-min Rain = 0
KDO2 131451Z 14004KT 30/22 A2996 RMK A01 T03020215  RH  060%=      5-min Rain = 0
KDO2 131452Z 16005KT 30/21 A2996 RMK A01 T03040213  RH  058%=      5-min Rain = 0
KDO2 131453Z 17004KT 30/21 A2996 RMK A01 T03040209  RH  057%=      5-min Rain = 0
KDO2 131454Z 17003KT 30/21 A2996 RMK A01 T03040208  RH  056%=      5-min Rain = 0
KDO2 131455Z 19004KT 30/21 A2996 RMK A01 T03040210  RH  057%=      5-min Rain = 0
KDO2 131456Z 20003KT 30/21 A2996 RMK A01 T03040210  RH  057%=      5-min Rain = 0
KDO2 131457Z 19002KT 30/21 A2996 RMK A01 T03040209  RH  057%=      5-min Rain = 0
KDO2 131458Z 18001KT 30/21 A2996 RMK A01 T03040207  RH  056%=      5-min Rain = 0
KDO2 131459Z 20001KT 31/21 A2996 RMK A01 T03050207  RH  056%=      5-min Rain = 0
KDO2 131500Z 15004KT 31/21 A2995 RMK A01 T03060209  RH  056%=      5-min Rain = 0
KDO2 131501Z 17002KT 31/21 A2995 RMK A01 T03060208  RH  056%=      5-min Rain = 0
KDO2 131502Z 14005KT 31/21 A2995 RMK A01 T03060210  RH  056%=      5-min Rain = 0
KDO2 131503Z 15008KT 31/21 A2995 RMK A01 T03070212  RH  057%=      5-min Rain = 0
KDO2 131504Z 15008KT 31/21 A2995 RMK A01 T03070213  RH  057%=      5-min Rain = 0
KDO2 131505Z 15009KT 31/21 A2995 RMK A01 T03070210  RH  056%=      5-min Rain = 0
KDO2 131506Z 16006KT 31/21 A2995 RMK A01 T03070210  RH  056%=      5-min Rain = 0
KDO2 131507Z 16004KT 31/21 A2996 RMK A01 T03060206  RH  055%=      5-min Rain = 0
KDO2 131508Z 16005KT 31/21 A2996 RMK A01 T03060209  RH  056%=      5-min Rain = 0
KDO2 131509Z 16003KT 31/21 A2996 RMK A01 T03070209  RH  056%=      5-min Rain = 0
KDO2 131510Z 15002KT 31/21 A2996 RMK A01 T03060205  RH  055%=      5-min Rain = 0
KDO2 131511Z 14002KT 31/21 A2996 RMK A01 T03070205  RH  055%=      5-min Rain = 0
KDO2 131512Z 10005KT 31/21 A2996 RMK A01 T03090208  RH  055%=      5-min Rain = 0
KDO2 131513Z 12002KT 31/20 A2996 RMK A01 T03090204  RH  054%=      5-min Rain = 0
KDO2 131514Z 11005KT 31/21 A2996 RMK A01 T03090207  RH  054%=      5-min Rain = 0
KDO2 131515Z 11005KT 31/21 A2996 RMK A01 T03100207  RH  054%=      5-min Rain = 0
KDO2 131516Z 12006KT 31/21 A2996 RMK A01 T03110208  RH  054%=      5-min Rain = 0
KDO2 131517Z 12006KT 31/21 A2996 RMK A01 T03110209  RH  055%=      5-min Rain = 0
KDO2 131518Z 12005KT 31/21 A2996 RMK A01 T03110208  RH  054%=      5-min Rain = 0
KDO2 131519Z 13005KT 31/21 A2996 RMK A01 T03110209  RH  054%=      5-min Rain = 0
KDO2 131520Z 14008KT 31/21 A2996 RMK A01 T03120211  RH  055%=      5-min Rain = 0
KDO2 131521Z 12004KT 31/21 A2996 RMK A01 T03110207  RH  054%=      5-min Rain = 0
KDO2 131522Z 10002KT 31/21 A2996 RMK A01 T03110207  RH  054%=      5-min Rain = 0
KDO2 131523Z 13003KT 31/21 A2995 RMK A01 T03110205  RH  053%=      5-min Rain = 0
KDO2 131524Z 17006KT 31/21 A2995 RMK A01 T03120211  RH  055%=      5-min Rain = 0
KDO2 131525Z 18004KT 31/21 A2995 RMK A01 T03130210  RH  054%=      5-min Rain = 0
KDO2 131526Z 16004KT 31/21 A2995 RMK A01 T03120209  RH  054%=      5-min Rain = 0
KDO2 131527Z 16007KT 31/21 A2995 RMK A01 T03120210  RH  054%=      5-min Rain = 0
KDO2 131528Z 14006KT 31/21 A2995 RMK A01 T03120207  RH  054%=      5-min Rain = 0
KDO2 131529Z 14005KT 31/20 A2995 RMK A01 T03120204  RH  053%=      5-min Rain = 0
KDO2 131530Z 15006KT 31/21 A2995 RMK A01 T03130207  RH  053%=      5-min Rain = 0
KDO2 131531Z 14006KT 31/21 A2995 RMK A01 T03140207  RH  053%=      5-min Rain = 0
KDO2 131532Z 15009KT 32/21 A2995 RMK A01 T03150211  RH  054%=      5-min Rain = 0
KDO2 131533Z 17009KT 32/21 A2995 RMK A01 T03160209  RH  053%=      5-min Rain = 0
KDO2 131534Z 17008KT 32/21 A2995 RMK A01 T03170209  RH  053%=      5-min Rain = 0
KDO2 131535Z 18006KT 32/21 A2995 RMK A01 T03170207  RH  052%=      5-min Rain = 0
KDO2 131536Z 20004KT 32/21 A2995 RMK A01 T03170206  RH  052%=      5-min Rain = 0
KDO2 131537Z 19005KT 32/21 A2995 RMK A01 T03170206  RH  052%=      5-min Rain = 0
KDO2 131538Z 19004KT 32/21 A2995 RMK A01 T03170207  RH  052%=      5-min Rain = 0
KDO2 131539Z 17004KT 32/21 A2995 RMK A01 T03170207  RH  052%=      5-min Rain = 0
KDO2 131540Z 15005KT 32/21 A2995 RMK A01 T03180214  RH  054%=      5-min Rain = 0
KDO2 131541Z 17006KT 32/22 A2995 RMK A01 T03210215  RH  054%=      5-min Rain = 0
KDO2 131542Z 18005KT 32/21 A2995 RMK A01 T03220213  RH  052%=      5-min Rain = 0
KDO2 131543Z 16005KT 32/21 A2995 RMK A01 T03220211  RH  052%=      5-min Rain = 0
KDO2 131544Z 14004KT 32/21 A2995 RMK A01 T03220208  RH  051%=      5-min Rain = 0
KDO2 131545Z 21004KT 32/21 A2995 RMK A01 T03220208  RH  051%=      5-min Rain = 0
KDO2 131546Z 24001KT 32/20 A2995 RMK A01 T03200198  RH  048%=      5-min Rain = 0
KDO2 131547Z 19000KT 32/20 A2995 RMK A01 T03190201  RH  050%=      5-min Rain = 0
KDO2 131548Z 17002KT 32/20 A2995 RMK A01 T03200203  RH  050%=      5-min Rain = 0
KDO2 131549Z 14005KT 32/21 A2995 RMK A01 T03230209  RH  051%=      5-min Rain = 0
KDO2 131550Z 12005KT 32/20 A2995 RMK A01 T03240204  RH  049%=      5-min Rain = 0
KDO2 131551Z 13003KT 32/21 A2995 RMK A01 T03230208  RH  051%=      5-min Rain = 0
KDO2 131552Z 14006KT 32/21 A2995 RMK A01 T03230205  RH  050%=      5-min Rain = 0
KDO2 131553Z 17008KT 32/21 A2995 RMK A01 T03240211  RH  051%=      5-min Rain = 0
KDO2 131554Z 17006KT 32/21 A2996 RMK A01 T03240205  RH  049%=      5-min Rain = 0
KDO2 131555Z 18005KT 32/20 A2996 RMK A01 T03230201  RH  049%=      5-min Rain = 0
KDO2 131556Z 16006KT 32/21 A2996 RMK A01 T03220205  RH  050%=      5-min Rain = 0
KDO2 131557Z 16007KT 32/21 A2996 RMK A01 T03230211  RH  052%=      5-min Rain = 0
KDO2 131558Z 16008KT 33/21 A2996 RMK A01 T03260208  RH  050%=      5-min Rain = 0
KDO2 131559Z 15006KT 33/20 A2996 RMK A01 T03260204  RH  049%=      5-min Rain = 0
KDO2 131600Z 14004KT 33/20 A2996 RMK A01 T03260203  RH  049%=      5-min Rain = 0
KDO2 131601Z 18003KT 33/21 A2996 RMK A01 T03260205  RH  049%=      5-min Rain = 0
KDO2 131602Z 18002KT 33/21 A2996 RMK A01 T03260205  RH  049%=      5-min Rain = 0
KDO2 131603Z 19003KT 33/21 A2996 RMK A01 T03280207  RH  049%=      5-min Rain = 0
KDO2 131604Z 14005KT 33/21 A2996 RMK A01 T03290206  RH  048%=      5-min Rain = 0
KDO2 131605Z 17008KT 33/21 A2996 RMK A01 T03290208  RH  049%=      5-min Rain = 0
KDO2 131606Z 16007KT 33/21 A2996 RMK A01 T03290209  RH  049%=      5-min Rain = 0
KDO2 131607Z 17006KT 33/21 A2996 RMK A01 T03290208  RH  049%=      5-min Rain = 0
KDO2 131608Z 17006KT 33/20 A2996 RMK A01 T03290203  RH  048%=      5-min Rain = 0
KDO2 131609Z 17005KT 33/20 A2996 RMK A01 T03280197  RH  046%=      5-min Rain = 0
KDO2 131610Z 15003KT 33/20 A2996 RMK A01 T03270201  RH  047%=      5-min Rain = 0
KDO2 131611Z 14006KT 33/20 A2996 RMK A01 T03280201  RH  047%=      5-min Rain = 0
KDO2 131612Z 14007KT 33/21 A2996 RMK A01 T03300207  RH  049%=      5-min Rain = 0
KDO2 131613Z 15008KT 33/21 A2996 RMK A01 T03320207  RH  048%=      5-min Rain = 0
KDO2 131614Z 15009KT 33/20 A2996 RMK A01 T03320204  RH  047%=      5-min Rain = 0
KDO2 131615Z 16007KT 33/21 A2996 RMK A01 T03310205  RH  047%=      5-min Rain = 0
KDO2 131616Z 17007KT 33/20 A2996 RMK A01 T03310202  RH  047%=      5-min Rain = 0
KDO2 131617Z 16006KT 33/20 A2996 RMK A01 T03300198  RH  046%=      5-min Rain = 0
KDO2 131618Z 11005KT 33/20 A2996 RMK A01 T03290201  RH  047%=      5-min Rain = 0
KDO2 131619Z 13005G10KT 33/20 A2996 RMK A01 T03300198  RH  046%=      5-min Rain = 0
KDO2 131620Z 16007KT 33/20 A2996 RMK A01 T03310200  RH  046%=      5-min Rain = 0
KDO2 131621Z 14003KT 33/20 A2996 RMK A01 T03300199  RH  046%=      5-min Rain = 0
KDO2 131622Z 12002KT 33/20 A2996 RMK A01 T03310197  RH  045%=      5-min Rain = 0
KDO2 131623Z 13000KT 33/20 A2996 RMK A01 T03310196  RH  045%=      5-min Rain = 0
KDO2 131624Z 00000KT 33/20 A2996 RMK A01 T03330197  RH  045%=      5-min Rain = 0
KDO2 131625Z 13002KT 34/20 A2996 RMK A01 T03360198  RH  044%=      5-min Rain = 0
KDO2 131626Z 14003KT 34/20 A2996 RMK A01 T03370199  RH  044%=      5-min Rain = 0
KDO2 131627Z 14002KT 34/20 A2996 RMK A01 T03370200  RH  045%=      5-min Rain = 0
KDO2 131628Z 14003KT 34/20 A2996 RMK A01 T03370200  RH  045%=      5-min Rain = 0
KDO2 131629Z 12004KT 34/20 A2996 RMK A01 T03380204  RH  045%=      5-min Rain = 0
KDO2 131630Z 11005KT 34/20 A2996 RMK A01 T03380200  RH  044%=      5-min Rain = 0
KDO2 131631Z 19006KT 34/20 A2996 RMK A01 T03370203  RH  045%=      5-min Rain = 0
KDO2 131632Z 17005KT 34/21 A2996 RMK A01 T03360206  RH  047%=      5-min Rain = 0
KDO2 131633Z 17006KT 34/21 A2996 RMK A01 T03370205  RH  046%=      5-min Rain = 0
KDO2 131634Z 18006KT 34/21 A2996 RMK A01 T03390209  RH  047%=      5-min Rain = 0
KDO2 131635Z 15006KT 34/20 A2996 RMK A01 T03400204  RH  045%=      5-min Rain = 0
KDO2 131636Z 13004KT 34/21 A2996 RMK A01 T03400207  RH  046%=      5-min Rain = 0
KDO2 131637Z 13003KT 34/20 A2996 RMK A01 T03410203  RH  044%=      5-min Rain = 0
KDO2 131638Z 12002KT 34/20 A2996 RMK A01 T03410201  RH  044%=      5-min Rain = 0
KDO2 131639Z 11002KT 34/20 A2996 RMK A01 T03420198  RH  043%=      5-min Rain = 0
KDO2 131640Z 13003KT 34/20 A2996 RMK A01 T03430198  RH  043%=      5-min Rain = 0
KDO2 131641Z 15002KT 34/20 A2996 RMK A01 T03430202  RH  044%=      5-min Rain = 0
KDO2 131642Z 13002KT 34/20 A2996 RMK A01 T03430201  RH  043%=      5-min Rain = 0
KDO2 131643Z 10003KT 34/20 A2996 RMK A01 T03440198  RH  042%=      5-min Rain = 0
KDO2 131644Z 10003KT 35/20 A2996 RMK A01 T03450196  RH  042%=      5-min Rain = 0
KDO2 131645Z 09004KT 35/20 A2996 RMK A01 T03450203  RH  043%=      5-min Rain = 0
KDO2 131646Z 10002KT 35/20 A2996 RMK A01 T03470195  RH  041%=      5-min Rain = 0
KDO2 131647Z 07001KT 35/20 A2996 RMK A01 T03460198  RH  042%=      5-min Rain = 0
KDO2 131648Z 36001KT 35/20 A2996 RMK A01 T03470197  RH  041%=      5-min Rain = 0
KDO2 131649Z 13001KT 35/20 A2996 RMK A01 T03480201  RH  042%=      5-min Rain = 0
KDO2 131650Z 16004KT 35/21 A2996 RMK A01 T03480206  RH  044%=      5-min Rain = 0
KDO2 131651Z 14007KT 35/20 A2996 RMK A01 T03490200  RH  042%=      5-min Rain = 0
KDO2 131652Z 15005KT 35/20 A2996 RMK A01 T03480203  RH  043%=      5-min Rain = 0
KDO2 131653Z 16005KT 35/20 A2996 RMK A01 T03470200  RH  042%=      5-min Rain = 0
KDO2 131654Z 19004KT 35/20 A2996 RMK A01 T03460198  RH  042%=      5-min Rain = 0
KDO2 131655Z 14004KT 34/20 A2995 RMK A01 T03440199  RH  043%=      5-min Rain = 0
KDO2 131656Z 13003KT 34/19 A2995 RMK A01 T03440194  RH  041%=      5-min Rain = 0
KDO2 131657Z 11003KT 34/20 A2995 RMK A01 T03440195  RH  042%=      5-min Rain = 0
KDO2 131658Z 10004KT 35/20 A2995 RMK A01 T03450195  RH  041%=      5-min Rain = 0
KDO2 131659Z 12005KT 35/20 A2995 RMK A01 T03450199  RH  042%=      5-min Rain = 0
KDO2 131700Z 13005KT 35/20 A2995 RMK A01 T03470199  RH  042%=      5-min Rain = 0
KDO2 131701Z 15002KT 35/20 A2995 RMK A01 T03470195  RH  041%=      5-min Rain = 0
KDO2 131702Z 17000KT 35/19 A2995 RMK A01 T03460191  RH  040%=      5-min Rain = 0
KDO2 131703Z 01001KT 34/19 A2995 RMK A01 T03440191  RH  040%=      5-min Rain = 0
KDO2 131704Z 02002KT 34/19 A2995 RMK A01 T03440193  RH  041%=      5-min Rain = 0
KDO2 131705Z 11003KT 34/20 A2995 RMK A01 T03440195  RH  042%=      5-min Rain = 0
KDO2 131706Z 14004KT 34/19 A2995 RMK A01 T03440193  RH  041%=      5-min Rain = 0
KDO2 131707Z 15005KT 35/20 A2995 RMK A01 T03450198  RH  042%=      5-min Rain = 0
KDO2 131708Z 14004KT 35/20 A2995 RMK A01 T03460197  RH  042%=      5-min Rain = 0
KDO2 131709Z 12006KT 35/20 A2995 RMK A01 T03470197  RH  042%=      5-min Rain = 0
KDO2 131710Z 10005KT 35/20 A2995 RMK A01 T03480196  RH  041%=      5-min Rain = 0
KDO2 131711Z 12004KT 35/19 A2995 RMK A01 T03480194  RH  040%=      5-min Rain = 0
KDO2 131712Z 13004KT 35/20 A2995 RMK A01 T03480201  RH  042%=      5-min Rain = 0
KDO2 131713Z 14001KT 35/20 A2995 RMK A01 T03510203  RH  042%=      5-min Rain = 0
KDO2 131714Z 14002KT 36/20 A2995 RMK A01 T03550201  RH  041%=      5-min Rain = 0
KDO2 131715Z 23004KT 36/20 A2995 RMK A01 T03570195  RH  039%=      5-min Rain = 0
KDO2 131716Z 19004KT 36/19 A2995 RMK A01 T03550193  RH  039%=      5-min Rain = 0
KDO2 131717Z 19003KT 35/19 A2995 RMK A01 T03540192  RH  039%=      5-min Rain = 0
KDO2 131718Z 18006KT 35/20 A2995 RMK A01 T03520196  RH  040%=      5-min Rain = 0
KDO2 131719Z 18006KT 35/20 A2995 RMK A01 T03510195  RH  040%=      5-min Rain = 0
KDO2 131720Z 18008KT 35/20 A2995 RMK A01 T03510199  RH  041%=      5-min Rain = 0
KDO2 131721Z 19006KT 35/20 A2995 RMK A01 T03510199  RH  041%=      5-min Rain = 0
KDO2 131722Z 16005KT 35/21 A2995 RMK A01 T03520206  RH  043%=      5-min Rain = 0
KDO2 131723Z 17009KT 36/20 A2995 RMK A01 T03550203  RH  041%=      5-min Rain = 0
KDO2 131724Z 15008KT 36/20 A2995 RMK A01 T03560199  RH  040%=      5-min Rain = 0
KDO2 131725Z 15008KT 36/20 A2994 RMK A01 T03560200  RH  040%=      5-min Rain = 0
KDO2 131726Z 16008KT 36/20 A2994 RMK A01 T03570202  RH  040%=      5-min Rain = 0
KDO2 131727Z 15005KT 36/19 A2994 RMK A01 T03570192  RH  038%=      5-min Rain = 0
KDO2 131728Z 14005KT 35/20 A2994 RMK A01 T03540195  RH  039%=      5-min Rain = 0
KDO2 131729Z 15005KT 35/20 A2994 RMK A01 T03540196  RH  040%=      5-min Rain = 0
KDO2 131730Z 15004KT 35/19 A2994 RMK A01 T03540193  RH  039%=      5-min Rain = 0
KDO2 131731Z 14002KT 36/19 A2994 RMK A01 T03550188  RH  037%=      5-min Rain = 0
KDO2 131732Z 13000KT 36/19 A2994 RMK A01 T03550191  RH  038%=      5-min Rain = 0
KDO2 131733Z 14003KT 36/19 A2994 RMK A01 T03580191  RH  037%=      5-min Rain = 0
KDO2 131734Z 16004KT 36/19 A2994 RMK A01 T03590194  RH  038%=      5-min Rain = 0
KDO2 131735Z 16007KT 36/19 A2994 RMK A01 T03610194  RH  038%=      5-min Rain = 0
KDO2 131736Z 16005KT 36/19 A2994 RMK A01 T03590193  RH  038%=      5-min Rain = 0
KDO2 131737Z 14004KT 36/19 A2994 RMK A01 T03580192  RH  038%=      5-min Rain = 0
KDO2 131738Z 15002KT 36/19 A2994 RMK A01 T03580187  RH  037%=      5-min Rain = 0
KDO2 131739Z 17005KT 36/19 A2994 RMK A01 T03570191  RH  038%=      5-min Rain = 0
KDO2 131740Z 17007KT 36/19 A2994 RMK A01 T03580191  RH  038%=      5-min Rain = 0
KDO2 131741Z 17007KT 36/19 A2994 RMK A01 T03580191  RH  037%=      5-min Rain = 0
KDO2 131742Z 16006KT 36/19 A2994 RMK A01 T03570189  RH  037%=      5-min Rain = 0
KDO2 131743Z 16005KT 36/19 A2994 RMK A01 T03570190  RH  038%=      5-min Rain = 0
KDO2 131744Z 15006KT 36/20 A2994 RMK A01 T03590199  RH  039%=      5-min Rain = 0
KDO2 131745Z 16005KT 36/19 A2994 RMK A01 T03610193  RH  037%=      5-min Rain = 0
KDO2 131746Z 17004KT 36/19 A2994 RMK A01 T03610190  RH  037%=      5-min Rain = 0
KDO2 131747Z 16006KT 36/19 A2994 RMK A01 T03610192  RH  037%=      5-min Rain = 0
KDO2 131748Z 17005KT 36/19 A2994 RMK A01 T03610189  RH  036%=      5-min Rain = 0
KDO2 131749Z 14004KT 36/19 A2994 RMK A01 T03600190  RH  037%=      5-min Rain = 0
KDO2 131750Z 14003KT 36/19 A2994 RMK A01 T03590186  RH  036%=      5-min Rain = 0
KDO2 131751Z 16002KT 36/19 A2994 RMK A01 T03590188  RH  037%=      5-min Rain = 0
KDO2 131752Z 08003KT 36/19 A2994 RMK A01 T03600189  RH  037%=      5-min Rain = 0
KDO2 131753Z 06002KT 36/19 A2994 RMK A01 T03610191  RH  037%=      5-min Rain = 0
KDO2 131754Z 05004KT 36/19 A2994 RMK A01 T03610187  RH  036%=      5-min Rain = 0
KDO2 131755Z 07004KT 36/19 A2993 RMK A01 T03590186  RH  036%=      5-min Rain = 0
KDO2 131756Z 08004KT 36/18 A2993 RMK A01 T03580184  RH  036%=      5-min Rain = 0
KDO2 131757Z 05002KT 36/18 A2993 RMK A01 T03570184  RH  036%=      5-min Rain = 0
KDO2 131758Z 05001KT 36/19 A2993 RMK A01 T03560185  RH  037%=      5-min Rain = 0
KDO2 131759Z 18002KT 36/19 A2993 RMK A01 T03580189  RH  037%=      5-min Rain = 0
KDO2 131800Z 16005KT 36/19 A2993 RMK A01 T03620191  RH  037%=      5-min Rain = 0
KDO2 131801Z 17008KT 36/19 A2993 RMK A01 T03640193  RH  037%=      5-min Rain = 0
KDO2 131802Z 17007KT 37/19 A2993 RMK A01 T03670187  RH  035%=      5-min Rain = 0
KDO2 131803Z 17008KT 37/19 A2993 RMK A01 T03670191  RH  036%=      5-min Rain = 0
KDO2 131804Z 16005KT 37/19 A2993 RMK A01 T03670191  RH  036%=      5-min Rain = 0
KDO2 131805Z 16006KT 37/19 A2993 RMK A01 T03690189  RH  035%=      5-min Rain = 0
KDO2 131806Z 14006KT 37/19 A2993 RMK A01 T03690191  RH  036%=      5-min Rain = 0
KDO2 131807Z 14005KT 37/18 A2993 RMK A01 T03690184  RH  034%=      5-min Rain = 0
KDO2 131808Z 14003KT 37/18 A2993 RMK A01 T03680182  RH  034%=      5-min Rain = 0
KDO2 131809Z 15002KT 37/18 A2993 RMK A01 T03650180  RH  034%=      5-min Rain = 0
KDO2 131810Z 12003KT 37/18 A2993 RMK A01 T03650179  RH  033%=      5-min Rain = 0
KDO2 131811Z 10001KT 37/18 A2993 RMK A01 T03670182  RH  034%=      5-min Rain = 0
KDO2 131812Z 10002KT 37/18 A2993 RMK A01 T03680180  RH  033%=      5-min Rain = 0
KDO2 131813Z 10002KT 37/18 A2993 RMK A01 T03680182  RH  034%=      5-min Rain = 0
KDO2 131814Z 06001KT 37/18 A2993 RMK A01 T03680181  RH  034%=      5-min Rain = 0
KDO2 131815Z 05001KT 37/18 A2993 RMK A01 T03680183  RH  034%=      5-min Rain = 0
KDO2 131816Z 19001KT 37/18 A2993 RMK A01 T03680184  RH  034%=      5-min Rain = 0
KDO2 131817Z 22003KT 37/19 A2993 RMK A01 T03690188  RH  035%=      5-min Rain = 0
KDO2 131818Z 21002KT 37/19 A2993 RMK A01 T03720189  RH  034%=      5-min Rain = 0
KDO2 131819Z 14002KT 37/19 A2993 RMK A01 T03730188  RH  034%=      5-min Rain = 0
KDO2 131820Z 18001KT 37/19 A2993 RMK A01 T03730185  RH  033%=      5-min Rain = 0
KDO2 131821Z 21002KT 38/18 A2993 RMK A01 T03750182  RH  033%=      5-min Rain = 0
KDO2 131822Z 19002KT 38/18 A2993 RMK A01 T03750183  RH  033%=      5-min Rain = 0
KDO2 131823Z 19002KT 37/18 A2993 RMK A01 T03740180  RH  032%=      5-min Rain = 0
KDO2 131824Z 17000KT 37/18 A2993 RMK A01 T03740177  RH  031%=      5-min Rain = 0
KDO2 131825Z 24001KT 37/18 A2993 RMK A01 T03740178  RH  032%=      5-min Rain = 0
KDO2 131826Z 20003KT 37/19 A2993 RMK A01 T03740185  RH  033%=      5-min Rain = 0
KDO2 131827Z 18006KT 37/18 A2993 RMK A01 T03740181  RH  032%=      5-min Rain = 0
KDO2 131828Z 15003KT 37/18 A2993 RMK A01 T03720178  RH  032%=      5-min Rain = 0
KDO2 131829Z 08005KT 37/18 A2993 RMK A01 T03720179  RH  032%=      5-min Rain = 0
KDO2 131830Z 07006KT 37/19 A2993 RMK A01 T03730187  RH  034%=      5-min Rain = 0
KDO2 131831Z 07004KT 37/19 A2993 RMK A01 T03730191  RH  035%=      5-min Rain = 0
KDO2 131832Z 05005KT 37/19 A2993 RMK A01 T03740188  RH  034%=      5-min Rain = 0
KDO2 131833Z 04003KT 37/19 A2993 RMK A01 T03740188  RH  034%=      5-min Rain = 0
KDO2 131834Z 07002KT 37/19 A2993 RMK A01 T03740189  RH  034%=      5-min Rain = 0
KDO2 131835Z 17003KT 37/19 A2993 RMK A01 T03740186  RH  033%=      5-min Rain = 0
KDO2 131836Z 21004KT 38/19 A2993 RMK A01 T03760186  RH  033%=      5-min Rain = 0
KDO2 131837Z 15003KT 38/19 A2993 RMK A01 T03770186  RH  033%=      5-min Rain = 0
KDO2 131838Z 11005KT 38/18 A2993 RMK A01 T03780184  RH  032%=      5-min Rain = 0
KDO2 131839Z 11004G9KT 38/19 A2993 RMK A01 T03770185  RH  033%=      5-min Rain = 0
KDO2 131840Z 09009KT 38/18 A2993 RMK A01 T03780182  RH  032%=      5-min Rain = 0
KDO2 131841Z 07007KT 38/18 A2993 RMK A01 T03770180  RH  031%=      5-min Rain = 0
KDO2 131842Z 07007KT 38/18 A2993 RMK A01 T03750181  RH  032%=      5-min Rain = 0
KDO2 131843Z 08007KT 37/19 A2993 RMK A01 T03740185  RH  033%=      5-min Rain = 0
KDO2 131844Z 08009KT 38/18 A2992 RMK A01 T03760179  RH  032%=      5-min Rain = 0
KDO2 131845Z 11006KT 38/18 A2992 RMK A01 T03760177  RH  031%=      5-min Rain = 0
KDO2 131846Z 10010KT 38/18 A2992 RMK A01 T03800176  RH  030%=      5-min Rain = 0
KDO2 131847Z 10012KT 38/17 A2992 RMK A01 T03820169  RH  029%=      5-min Rain = 0
KDO2 131848Z 09009KT 38/17 A2993 RMK A01 T03810167  RH  029%=      5-min Rain = 0
KDO2 131849Z 10007KT 38/17 A2993 RMK A01 T03810170  RH  029%=      5-min Rain = 0
KDO2 131850Z 10004KT 38/17 A2992 RMK A01 T03790167  RH  029%=      5-min Rain = 0
KDO2 131851Z 11006KT 38/17 A2992 RMK A01 T03770170  RH  030%=      5-min Rain = 0
KDO2 131852Z 07006KT 38/18 A2992 RMK A01 T03770176  RH  031%=      5-min Rain = 0
KDO2 131853Z 06003KT 38/17 A2992 RMK A01 T03760173  RH  030%=      5-min Rain = 0
KDO2 131854Z 07007KT 38/18 A2992 RMK A01 T03750179  RH  032%=      5-min Rain = 0
KDO2 131855Z 09007KT 38/17 A2992 RMK A01 T03750173  RH  031%=      5-min Rain = 0
KDO2 131856Z 06005KT 37/18 A2992 RMK A01 T03740177  RH  032%=      5-min Rain = 0
KDO2 131857Z 03005KT 37/17 A2992 RMK A01 T03740174  RH  031%=      5-min Rain = 0
KDO2 131858Z 02004KT 37/18 A2992 RMK A01 T03730177  RH  032%=      5-min Rain = 0
KDO2 131859Z 35002KT 37/18 A2992 RMK A01 T03720176  RH  032%=      5-min Rain = 0
KDO2 131900Z 01000KT 37/18 A2992 RMK A01 T03730177  RH  032%=      5-min Rain = 0
KDO2 131901Z 12003KT 38/18 A2992 RMK A01 T03770179  RH  031%=      5-min Rain = 0
KDO2 131902Z 11004KT 38/18 A2992 RMK A01 T03800179  RH  031%=      5-min Rain = 0
KDO2 131903Z 12006KT 38/18 A2992 RMK A01 T03810179  RH  031%=      5-min Rain = 0
KDO2 131904Z 13008KT 38/18 A2992 RMK A01 T03810180  RH  031%=      5-min Rain = 0
KDO2 131905Z 16006KT 38/18 A2992 RMK A01 T03810178  RH  031%=      5-min Rain = 0
KDO2 131906Z 15007KT 38/18 A2992 RMK A01 T03800182  RH  031%=      5-min Rain = 0
KDO2 131907Z 13007KT 38/18 A2992 RMK A01 T03800179  RH  031%=      5-min Rain = 0
KDO2 131908Z 13004KT 38/18 A2992 RMK A01 T03800176  RH  030%=      5-min Rain = 0
KDO2 131909Z 09007KT 38/18 A2992 RMK A01 T03800179  RH  031%=      5-min Rain = 0
KDO2 131910Z 06005KT 38/18 A2992 RMK A01 T03780177  RH  031%=      5-min Rain = 0
KDO2 131911Z 02005KT 38/18 A2992 RMK A01 T03760176  RH  031%=      5-min Rain = 0
KDO2 131912Z 36006KT 37/17 A2992 RMK A01 T03730173  RH  031%=      5-min Rain = 0
KDO2 131913Z 36005KT 37/18 A2992 RMK A01 T03720176  RH  032%=      5-min Rain = 0
KDO2 131914Z 01003KT 37/18 A2992 RMK A01 T03710179  RH  032%=      5-min Rain = 0
KDO2 131915Z 07001KT 37/17 A2992 RMK A01 T03730174  RH  031%=      5-min Rain = 0
KDO2 131916Z 08001KT 38/18 A2992 RMK A01 T03750178  RH  032%=      5-min Rain = 0
KDO2 131917Z 10004KT 38/18 A2992 RMK A01 T03790183  RH  032%=      5-min Rain = 0
KDO2 131918Z 10005KT 38/18 A2992 RMK A01 T03810175  RH  030%=      5-min Rain = 0
KDO2 131919Z 08002KT 38/18 A2992 RMK A01 T03810177  RH  030%=      5-min Rain = 0
KDO2 131920Z 10001KT 38/18 A2992 RMK A01 T03800175  RH  030%=      5-min Rain = 0
KDO2 131921Z 31000KT 38/17 A2992 RMK A01 T03800169  RH  029%=      5-min Rain = 0
KDO2 131922Z 26001KT 38/17 A2992 RMK A01 T03800172  RH  030%=      5-min Rain = 0
KDO2 131923Z 25001KT 38/18 A2992 RMK A01 T03810177  RH  030%=      5-min Rain = 0
KDO2 131924Z 09004KT 38/18 A2992 RMK A01 T03830177  RH  030%=      5-min Rain = 0
KDO2 131925Z 09005KT 38/18 A2992 RMK A01 T03830181  RH  031%=      5-min Rain = 0
KDO2 131926Z 10006KT 38/18 A2992 RMK A01 T03830177  RH  030%=      5-min Rain = 0
KDO2 131927Z 10008KT 39/18 A2992 RMK A01 T03850175  RH  029%=      5-min Rain = 0
KDO2 131928Z 09005KT 39/17 A2992 RMK A01 T03850166  RH  028%=      5-min Rain = 0
KDO2 131929Z 08008KT 38/17 A2991 RMK A01 T03830168  RH  028%=      5-min Rain = 0
KDO2 131930Z 07010KT 38/17 A2991 RMK A01 T03800172  RH  029%=      5-min Rain = 0
KDO2 131931Z 06010KT 38/17 A2991 RMK A01 T03780167  RH  029%=      5-min Rain = 0
KDO2 131932Z 08008KT 38/17 A2991 RMK A01 T03760170  RH  030%=      5-min Rain = 0
KDO2 131933Z 08008KT 38/17 A2991 RMK A01 T03780170  RH  030%=      5-min Rain = 0
KDO2 131934Z 08008KT 38/17 A2991 RMK A01 T03810169  RH  029%=      5-min Rain = 0
KDO2 131935Z 06005KT 38/17 A2991 RMK A01 T03810172  RH  029%=      5-min Rain = 0
KDO2 131936Z 06007KT 38/18 A2991 RMK A01 T03810179  RH  031%=      5-min Rain = 0
KDO2 131937Z 06007KT 38/17 A2991 RMK A01 T03810174  RH  030%=      5-min Rain = 0
KDO2 131938Z 08005KT 38/18 A2991 RMK A01 T03810177  RH  030%=      5-min Rain = 0
KDO2 131939Z 08007G12KT 38/18 A2991 RMK A01 T03810177  RH  030%=      5-min Rain = 0
KDO2 131940Z 11009KT 38/17 A2991 RMK A01 T03820169  RH  029%=      5-min Rain = 0
KDO2 131941Z 10008KT 38/17 A2991 RMK A01 T03840170  RH  029%=      5-min Rain = 0
KDO2 131942Z 11012KT 39/17 A2991 RMK A01 T03850170  RH  028%=      5-min Rain = 0
KDO2 131943Z 10009KT 38/17 A2991 RMK A01 T03840169  RH  029%=      5-min Rain = 0
KDO2 131944Z 07005KT 38/17 A2991 RMK A01 T03820166  RH  028%=      5-min Rain = 0
KDO2 131945Z 13005KT 38/17 A2991 RMK A01 T03800170  RH  029%=      5-min Rain = 0
KDO2 131946Z 15008KT 38/17 A2991 RMK A01 T03820174  RH  030%=      5-min Rain = 0
KDO2 131947Z 15003KT 38/17 A2991 RMK A01 T03840166  RH  028%=      5-min Rain = 0
KDO2 131948Z 11006KT 38/17 A2991 RMK A01 T03840166  RH  028%=      5-min Rain = 0
KDO2 131949Z 10008KT 38/16 A2991 RMK A01 T03830164  RH  028%=      5-min Rain = 0
KDO2 131950Z 06007KT 38/17 A2991 RMK A01 T03820168  RH  029%=      5-min Rain = 0
KDO2 131951Z 04004KT 38/17 A2991 RMK A01 T03790166  RH  029%=      5-min Rain = 0
KDO2 131952Z 05003KT 38/17 A2991 RMK A01 T03790169  RH  029%=      5-min Rain = 0
KDO2 131953Z 01002KT 38/18 A2991 RMK A01 T03800177  RH  031%=      5-min Rain = 0
KDO2 131954Z 04003KT 38/17 A2991 RMK A01 T03820171  RH  029%=      5-min Rain = 0
KDO2 131955Z 02003KT 38/18 A2991 RMK A01 T03840180  RH  031%=      5-min Rain = 0
KDO2 131956Z 01003KT 39/17 A2991 RMK A01 T03850172  RH  029%=      5-min Rain = 0
KDO2 131957Z 00001KT 38/17 A2991 RMK A01 T03840170  RH  029%=      5-min Rain = 0
KDO2 131958Z 18003KT 38/17 A2991 RMK A01 T03840167  RH  028%=      5-min Rain = 0
KDO2 131959Z 13004KT 38/16 A2991 RMK A01 T03840164  RH  027%=      5-min Rain = 0
KDO2 132000Z 10002KT 39/17 A299 RMK A01 T03850168  RH  028%=      5-min Rain = 0
KDO2 132001Z 13004G9KT 39/17 A299 RMK A01 T03850168  RH  028%=      5-min Rain = 0
KDO2 132002Z 14007KT 39/17 A299 RMK A01 T03870170  RH  028%=      5-min Rain = 0
KDO2 132003Z 14007KT 39/17 A299 RMK A01 T03880171  RH  028%=      5-min Rain = 0
KDO2 132004Z 15007KT 39/17 A299 RMK A01 T03880172  RH  028%=      5-min Rain = 0
KDO2 132005Z 14002KT 39/16 A299 RMK A01 T03860163  RH  027%=      5-min Rain = 0
KDO2 132006Z 13001KT 38/16 A299 RMK A01 T03840164  RH  027%=      5-min Rain = 0
KDO2 132007Z 15003KT 38/16 A299 RMK A01 T03840164  RH  027%=      5-min Rain = 0
KDO2 132008Z 10009G16KT 39/17 A299 RMK A01 T03860174  RH  029%=      5-min Rain = 0
KDO2 132009Z 11006KT 39/17 A299 RMK A01 T03870169  RH  028%=      5-min Rain = 0
KDO2 132010Z 14009KT 39/17 A299 RMK A01 T03880171  RH  028%=      5-min Rain = 0
KDO2 132011Z 15011KT 39/17 A299 RMK A01 T03910168  RH  027%=      5-min Rain = 0
KDO2 132012Z 16009KT 39/16 A299 RMK A01 T03890161  RH  026%=      5-min Rain = 0
KDO2 132013Z 14011KT 39/17 A299 RMK A01 T03870168  RH  028%=      5-min Rain = 0
KDO2 132014Z 13009KT 39/17 A299 RMK A01 T03870166  RH  027%=      5-min Rain = 0
KDO2 132015Z 14006KT 39/16 A299 RMK A01 T03870164  RH  027%=      5-min Rain = 0
KDO2 132016Z 14006KT 39/17 A299 RMK A01 T03870168  RH  028%=      5-min Rain = 0
KDO2 132017Z 11007KT 39/17 A299 RMK A01 T03890166  RH  027%=      5-min Rain = 0
KDO2 132018Z 13007KT 39/16 A299 RMK A01 T03900164  RH  027%=      5-min Rain = 0
KDO2 132019Z 11009KT 39/17 A299 RMK A01 T03900168  RH  027%=      5-min Rain = 0
KDO2 132020Z 11008KT 39/16 A299 RMK A01 T03880162  RH  026%=      5-min Rain = 0
KDO2 132021Z 11006KT 39/16 A299 RMK A01 T03860163  RH  027%=      5-min Rain = 0
KDO2 132022Z 10003KT 39/16 A299 RMK A01 T03850159  RH  026%=      5-min Rain = 0
KDO2 132023Z 07004KT 39/16 A299 RMK A01 T03850161  RH  027%=      5-min Rain = 0
KDO2 132024Z 03003KT 39/16 A299 RMK A01 T03850164  RH  027%=      5-min Rain = 0
KDO2 132025Z 01006KT 39/17 A2989 RMK A01 T03860173  RH  029%=      5-min Rain = 0
KDO2 132026Z 00005KT 39/17 A2989 RMK A01 T03850166  RH  028%=      5-min Rain = 0
KDO2 132027Z 03005KT 38/17 A2989 RMK A01 T03840169  RH  028%=      5-min Rain = 0
KDO2 132028Z 04004KT 38/17 A2989 RMK A01 T03840168  RH  028%=      5-min Rain = 0
KDO2 132029Z 07004KT 38/16 A2989 RMK A01 T03840164  RH  028%=      5-min Rain = 0
KDO2 132030Z 12007KT 39/17 A2989 RMK A01 T03850171  RH  029%=      5-min Rain = 0
KDO2 132031Z 13003KT 39/17 A2989 RMK A01 T03880166  RH  027%=      5-min Rain = 0
KDO2 132032Z 08003KT 39/16 A2989 RMK A01 T03880161  RH  026%=      5-min Rain = 0
KDO2 132033Z 10005KT 39/17 A2989 RMK A01 T03890171  RH  028%=      5-min Rain = 0
KDO2 132034Z 10006KT 39/17 A2989 RMK A01 T03900167  RH  027%=      5-min Rain = 0
KDO2 132035Z 10003KT 39/16 A2989 RMK A01 T03910161  RH  026%=      5-min Rain = 0
KDO2 132036Z 08005KT 39/17 A2989 RMK A01 T03910169  RH  027%=      5-min Rain = 0
KDO2 132037Z 09005KT 39/17 A2989 RMK A01 T03920169  RH  027%=      5-min Rain = 0
KDO2 132038Z 11005KT 39/17 A2989 RMK A01 T03920166  RH  027%=      5-min Rain = 0
KDO2 132039Z 16002KT 39/16 A2989 RMK A01 T03910161  RH  026%=      5-min Rain = 0
KDO2 132040Z 11002KT 39/16 A2989 RMK A01 T03890158  RH  026%=      5-min Rain = 0
KDO2 132041Z 09004KT 39/16 A2989 RMK A01 T03900164  RH  027%=      5-min Rain = 0
KDO2 132042Z 10010G15KT 39/17 A2989 RMK A01 T03920165  RH  026%=      5-min Rain = 0
KDO2 132043Z 13009KT 39/17 A2989 RMK A01 T03920166  RH  027%=      5-min Rain = 0
KDO2 132044Z 12009KT 39/17 A2989 RMK A01 T03930165  RH  026%=      5-min Rain = 0
KDO2 132045Z 09009KT 39/16 A2989 RMK A01 T03930163  RH  026%=      5-min Rain = 0
KDO2 132046Z 08011KT 39/17 A2989 RMK A01 T03920165  RH  026%=      5-min Rain = 0
KDO2 132047Z 08010KT 39/17 A2989 RMK A01 T03900165  RH  027%=      5-min Rain = 0
KDO2 132048Z 09006KT 39/16 A2989 RMK A01 T03900160  RH  026%=      5-min Rain = 0
KDO2 132049Z 08006KT 39/17 A2989 RMK A01 T03890165  RH  027%=      5-min Rain = 0
KDO2 132050Z 07005KT 39/16 A2989 RMK A01 T03880163  RH  027%=      5-min Rain = 0
KDO2 132051Z 10004KT 39/16 A2989 RMK A01 T03870163  RH  027%=      5-min Rain = 0
KDO2 132052Z 16006KT 39/16 A2989 RMK A01 T03870160  RH  026%=      5-min Rain = 0
KDO2 132053Z 20005KT 39/15 A2989 RMK A01 T03870153  RH  025%=      5-min Rain = 0
KDO2 132054Z 26002KT 39/15 A2988 RMK A01 T03860150  RH  025%=      5-min Rain = 0
KDO2 132055Z 25001KT 39/15 A2988 RMK A01 T03850149  RH  025%=      5-min Rain = 0
KDO2 132056Z 20001KT 39/16 A2988 RMK A01 T03860155  RH  026%=      5-min Rain = 0
KDO2 132057Z 21002KT 39/16 A2988 RMK A01 T03890156  RH  025%=      5-min Rain = 0
KDO2 132058Z 22004KT 39/16 A2988 RMK A01 T03910159  RH  026%=      5-min Rain = 0
KDO2 132059Z 20004KT 39/16 A2988 RMK A01 T03930162  RH  026%=      5-min Rain = 0
KDO2 132100Z 21006KT 40/16 A2988 RMK A01 T03950160  RH  025%=      5-min Rain = 0
KDO2 132101Z 19007KT 40/16 A2988 RMK A01 T03950161  RH  026%=      5-min Rain = 0
KDO2 132102Z 16009KT 39/17 A2988 RMK A01 T03940166  RH  026%=      5-min Rain = 0
KDO2 132103Z 16008KT 39/16 A2988 RMK A01 T03940163  RH  026%=      5-min Rain = 0
KDO2 132104Z 16009KT 39/17 A2988 RMK A01 T03920165  RH  027%=      5-min Rain = 0
KDO2 132105Z 14010KT 39/17 A2988 RMK A01 T03920165  RH  027%=      5-min Rain = 0
KDO2 132106Z 14010KT 39/16 A2988 RMK A01 T03920164  RH  026%=      5-min Rain = 0
KDO2 132107Z 13008KT 39/16 A2988 RMK A01 T03900163  RH  026%=      5-min Rain = 0
KDO2 132108Z 12006KT 39/17 A2988 RMK A01 T03910168  RH  027%=      5-min Rain = 0
KDO2 132109Z 14005KT 39/17 A2988 RMK A01 T03930166  RH  027%=      5-min Rain = 0
KDO2 132110Z 16006KT 39/17 A2988 RMK A01 T03940167  RH  027%=      5-min Rain = 0
KDO2 132111Z 14006KT 39/16 A2988 RMK A01 T03920164  RH  026%=      5-min Rain = 0
KDO2 132112Z 13006KT 39/17 A2988 RMK A01 T03920169  RH  027%=      5-min Rain = 0
KDO2 132113Z 09006KT 39/16 A2988 RMK A01 T03940161  RH  026%=      5-min Rain = 0
KDO2 132114Z 11005KT 39/16 A2988 RMK A01 T03940160  RH  025%=      5-min Rain = 0
KDO2 132115Z 11005KT 39/17 A2988 RMK A01 T03940165  RH  026%=      5-min Rain = 0
KDO2 132116Z 13008KT 40/17 A2988 RMK A01 T03950168  RH  027%=      5-min Rain = 0
KDO2 132117Z 15009KT 40/16 A2988 RMK A01 T03960163  RH  026%=      5-min Rain = 0
KDO2 132118Z 13009KT 39/16 A2988 RMK A01 T03940160  RH  025%=      5-min Rain = 0
KDO2 132119Z 11010KT 39/17 A2988 RMK A01 T03920165  RH  026%=      5-min Rain = 0
KDO2 132120Z 12010KT 39/16 A2988 RMK A01 T03930163  RH  026%=      5-min Rain = 0
KDO2 132121Z 10009KT 39/16 A2988 RMK A01 T03930162  RH  026%=      5-min Rain = 0
KDO2 132122Z 11007KT 39/16 A2988 RMK A01 T03930158  RH  025%=      5-min Rain = 0
KDO2 132123Z 11005KT 39/15 A2988 RMK A01 T03930152  RH  024%=      5-min Rain = 0
KDO2 132124Z 11002KT 39/15 A2988 RMK A01 T03910152  RH  025%=      5-min Rain = 0
KDO2 132125Z 10001KT 39/15 A2988 RMK A01 T03900152  RH  025%=      5-min Rain = 0
KDO2 132126Z 08004KT 39/16 A2988 RMK A01 T03910156  RH  025%=      5-min Rain = 0
KDO2 132127Z 07006KT 39/16 A2988 RMK A01 T03920162  RH  026%=      5-min Rain = 0
KDO2 132128Z 06006KT 39/16 A2988 RMK A01 T03930158  RH  025%=      5-min Rain = 0
KDO2 132129Z 06006KT 39/16 A2988 RMK A01 T03910158  RH  025%=      5-min Rain = 0
KDO2 132130Z 05006KT 39/16 A2987 RMK A01 T03900158  RH  026%=      5-min Rain = 0
KDO2 132131Z 09008KT 39/16 A2987 RMK A01 T03900161  RH  026%=      5-min Rain = 0
KDO2 132132Z 10010KT 39/15 A2988 RMK A01 T03910149  RH  024%=      5-min Rain = 0
KDO2 132133Z 10007KT 39/15 A2988 RMK A01 T03920147  RH  024%=      5-min Rain = 0
KDO2 132134Z 09006KT 39/15 A2987 RMK A01 T03920149  RH  024%=      5-min Rain = 0
KDO2 132135Z 10007KT 39/16 A2987 RMK A01 T03930155  RH  025%=      5-min Rain = 0
KDO2 132136Z 11009KT 40/15 A2987 RMK A01 T03950152  RH  024%=      5-min Rain = 0
KDO2 132137Z 11006KT 39/15 A2987 RMK A01 T03940148  RH  023%=      5-min Rain = 0
KDO2 132138Z 13004KT 39/15 A2987 RMK A01 T03910148  RH  024%=      5-min Rain = 0
KDO2 132139Z 16003KT 39/15 A2987 RMK A01 T03910147  RH  024%=      5-min Rain = 0
KDO2 132140Z 11003KT 39/15 A2987 RMK A01 T03910148  RH  024%=      5-min Rain = 0
KDO2 132141Z 05004KT 39/15 A2987 RMK A01 T03900153  RH  025%=      5-min Rain = 0
KDO2 132142Z 07005KT 39/16 A2987 RMK A01 T03910158  RH  025%=      5-min Rain = 0
KDO2 132143Z 11003KT 39/16 A2987 RMK A01 T03910160  RH  026%=      5-min Rain = 0
KDO2 132144Z 13005KT 39/16 A2987 RMK A01 T03930158  RH  025%=      5-min Rain = 0
KDO2 132145Z 15003KT 39/15 A2987 RMK A01 T03940151  RH  024%=      5-min Rain = 0
KDO2 132146Z 10006KT 39/15 A2987 RMK A01 T03920153  RH  024%=      5-min Rain = 0
KDO2 132147Z 08007KT 39/16 A2987 RMK A01 T03930155  RH  025%=      5-min Rain = 0
KDO2 132148Z 09003KT 39/15 A2987 RMK A01 T03920149  RH  024%=      5-min Rain = 0
KDO2 132149Z 12001KT 39/15 A2987 RMK A01 T03920149  RH  024%=      5-min Rain = 0
KDO2 132150Z 09002KT 39/15 A2987 RMK A01 T03920150  RH  024%=      5-min Rain = 0
KDO2 132151Z 07005KT 39/16 A2987 RMK A01 T03930156  RH  025%=      5-min Rain = 0
KDO2 132152Z 07007KT 39/16 A2987 RMK A01 T03930159  RH  025%=      5-min Rain = 0
KDO2 132153Z 06003KT 39/15 A2987 RMK A01 T03920151  RH  024%=      5-min Rain = 0
KDO2 132154Z 07006KT 39/16 A2987 RMK A01 T03910164  RH  027%=      5-min Rain = 0
KDO2 132155Z 06005KT 39/16 A2987 RMK A01 T03910163  RH  026%=      5-min Rain = 0
KDO2 132156Z 06008KT 39/16 A2987 RMK A01 T03920162  RH  026%=      5-min Rain = 0
KDO2 132157Z 05006KT 39/16 A2986 RMK A01 T03910162  RH  026%=      5-min Rain = 0
KDO2 132158Z 05006KT 39/17 A2986 RMK A01 T03910168  RH  027%=      5-min Rain = 0
KDO2 132159Z 05007KT 39/16 A2986 RMK A01 T03910161  RH  026%=      5-min Rain = 0
KDO2 132200Z 07005KT 39/16 A2987 RMK A01 T03900163  RH  027%=      5-min Rain = 0
KDO2 132201Z 13007KT 39/16 A2986 RMK A01 T03910162  RH  026%=      5-min Rain = 0
KDO2 132202Z 14006KT 39/16 A2986 RMK A01 T03920155  RH  025%=      5-min Rain = 0
KDO2 132203Z 14006KT 39/16 A2986 RMK A01 T03930155  RH  025%=      5-min Rain = 0
KDO2 132204Z 14007KT 39/16 A2986 RMK A01 T03940158  RH  025%=      5-min Rain = 0
KDO2 132205Z 15007KT 39/16 A2986 RMK A01 T03940155  RH  025%=      5-min Rain = 0
KDO2 132206Z 14007KT 40/16 A2986 RMK A01 T03950156  RH  025%=      5-min Rain = 0
KDO2 132207Z 11005KT 39/15 A2986 RMK A01 T03940153  RH  024%=      5-min Rain = 0
KDO2 132208Z 08005KT 39/16 A2986 RMK A01 T03940158  RH  025%=      5-min Rain = 0
KDO2 132209Z 08007G13KT 39/16 A2986 RMK A01 T03940163  RH  026%=      5-min Rain = 0
KDO2 132210Z 09010KT 40/16 A2986 RMK A01 T03950161  RH  025%=      5-min Rain = 0
KDO2 132211Z 08008KT 40/16 A2986 RMK A01 T03980159  RH  025%=      5-min Rain = 0
KDO2 132212Z 08008KT 40/16 A2986 RMK A01 T03980160  RH  025%=      5-min Rain = 0
KDO2 132213Z 10005KT 40/15 A2986 RMK A01 T03950153  RH  024%=      5-min Rain = 0
KDO2 132214Z 07006KT 39/16 A2986 RMK A01 T03940159  RH  025%=      5-min Rain = 0
KDO2 132215Z 08004KT 39/15 A2986 RMK A01 T03930152  RH  024%=      5-min Rain = 0
KDO2 132216Z 08006KT 39/16 A2986 RMK A01 T03920157  RH  025%=      5-min Rain = 0
KDO2 132217Z 07008KT 39/16 A2986 RMK A01 T03920158  RH  025%=      5-min Rain = 0
KDO2 132218Z 06007KT 39/16 A2986 RMK A01 T03920163  RH  026%=      5-min Rain = 0
KDO2 132219Z 05008KT 39/16 A2986 RMK A01 T03900157  RH  026%=      5-min Rain = 0
KDO2 132220Z 05008KT 39/16 A2986 RMK A01 T03880159  RH  026%=      5-min Rain = 0
KDO2 132221Z 04007KT 39/16 A2986 RMK A01 T03880157  RH  026%=      5-min Rain = 0
KDO2 132222Z 03006KT 39/16 A2986 RMK A01 T03870164  RH  027%=      5-min Rain = 0
KDO2 132223Z 03005KT 39/16 A2986 RMK A01 T03880163  RH  027%=      5-min Rain = 0
KDO2 132224Z 05007KT 39/17 A2986 RMK A01 T03880169  RH  028%=      5-min Rain = 0
KDO2 132225Z 07006KT 39/17 A2986 RMK A01 T03890169  RH  028%=      5-min Rain = 0
KDO2 132226Z 11005KT 39/16 A2986 RMK A01 T03900161  RH  026%=      5-min Rain = 0
KDO2 132227Z 13005KT 39/16 A2986 RMK A01 T03930164  RH  026%=      5-min Rain = 0
KDO2 132228Z 14008KT 39/17 A2986 RMK A01 T03940165  RH  026%=      5-min Rain = 0
KDO2 132229Z 13008KT 40/16 A2986 RMK A01 T03950163  RH  026%=      5-min Rain = 0
KDO2 132230Z 10007KT 40/16 A2985 RMK A01 T03950162  RH  025%=      5-min Rain = 0
KDO2 132231Z 11009KT 40/16 A2985 RMK A01 T03960161  RH  025%=      5-min Rain = 0
KDO2 132232Z 11012KT 40/16 A2985 RMK A01 T03970158  RH  025%=      5-min Rain = 0
KDO2 132233Z 12011KT 40/16 A2986 RMK A01 T03960158  RH  025%=      5-min Rain = 0
KDO2 132234Z 12011KT 40/16 A2986 RMK A01 T03950156  RH  025%=      5-min Rain = 0
KDO2 132235Z 13007KT 39/16 A2986 RMK A01 T03940157  RH  025%=      5-min Rain = 0
KDO2 132236Z 16006KT 39/15 A2986 RMK A01 T03940154  RH  025%=      5-min Rain = 0
KDO2 132237Z 13004KT 39/16 A2986 RMK A01 T03940157  RH  025%=      5-min Rain = 0
KDO2 132238Z 11010KT 39/16 A2986 RMK A01 T03940156  RH  025%=      5-min Rain = 0
KDO2 132239Z 11008KT 39/15 A2986 RMK A01 T03930152  RH  024%=      5-min Rain = 0
KDO2 132240Z 10007KT 39/15 A2986 RMK A01 T03910149  RH  024%=      5-min Rain = 0
KDO2 132241Z 11005KT 39/15 A2986 RMK A01 T03880146  RH  024%=      5-min Rain = 0
KDO2 132242Z 09005KT 39/15 A2986 RMK A01 T03880151  RH  025%=      5-min Rain = 0
KDO2 132243Z 10004KT 39/15 A2986 RMK A01 T03870149  RH  025%=      5-min Rain = 0
KDO2 132244Z 09004KT 39/15 A2986 RMK A01 T03860148  RH  024%=      5-min Rain = 0
KDO2 132245Z 07006KT 39/16 A2986 RMK A01 T03860155  RH  026%=      5-min Rain = 0
KDO2 132246Z 06003KT 39/15 A2986 RMK A01 T03850152  RH  025%=      5-min Rain = 0
KDO2 132247Z 07002KT 38/16 A2986 RMK A01 T03840160  RH  027%=      5-min Rain = 0
KDO2 132248Z 11003KT 38/16 A2986 RMK A01 T03830163  RH  027%=      5-min Rain = 0
KDO2 132249Z 12004KT 38/17 A2986 RMK A01 T03830167  RH  028%=      5-min Rain = 0
KDO2 132250Z 09005KT 38/16 A2986 RMK A01 T03820158  RH  027%=      5-min Rain = 0
KDO2 132251Z 11005KT 38/16 A2986 RMK A01 T03820156  RH  026%=      5-min Rain = 0
KDO2 132252Z 11005KT 38/16 A2986 RMK A01 T03830161  RH  027%=      5-min Rain = 0
KDO2 132253Z 10007KT 38/16 A2986 RMK A01 T03830159  RH  027%=      5-min Rain = 0
KDO2 132254Z 10008KT 38/16 A2986 RMK A01 T03830157  RH  027%=      5-min Rain = 0
KDO2 132255Z 09012KT 38/15 A2986 RMK A01 T03820153  RH  026%=      5-min Rain = 0
KDO2 132256Z 09008KT 38/15 A2986 RMK A01 T03820152  RH  026%=      5-min Rain = 0
KDO2 132257Z 09008KT 38/16 A2986 RMK A01 T03840159  RH  027%=      5-min Rain = 0
KDO2 132258Z 09007KT 39/16 A2986 RMK A01 T03860161  RH  027%=      5-min Rain = 0
KDO2 132259Z 09008KT 39/17 A2986 RMK A01 T03870165  RH  027%=      5-min Rain = 0
KDO2 132300Z 11008KT 39/16 A2986 RMK A01 T03880160  RH  026%=      5-min Rain = 0
KDO2 132301Z 09006KT 39/16 A2986 RMK A01 T03890162  RH  026%=      5-min Rain = 0
KDO2 132302Z 08008KT 39/16 A2986 RMK A01 T03900161  RH  026%=      5-min Rain = 0
KDO2 132303Z 07010KT 39/16 A2986 RMK A01 T03890159  RH  026%=      5-min Rain = 0
KDO2 132304Z 06007KT 39/16 A2986 RMK A01 T03860161  RH  027%=      5-min Rain = 0
KDO2 132305Z 05007KT 39/16 A2986 RMK A01 T03850164  RH  027%=      5-min Rain = 0
KDO2 132306Z 07007KT 38/16 A2986 RMK A01 T03840156  RH  026%=      5-min Rain = 0
KDO2 132307Z 08005KT 38/15 A2986 RMK A01 T03840154  RH  026%=      5-min Rain = 0
KDO2 132308Z 06006KT 39/16 A2986 RMK A01 T03860161  RH  027%=      5-min Rain = 0
KDO2 132309Z 06008KT 39/16 A2986 RMK A01 T03870161  RH  027%=      5-min Rain = 0
KDO2 132310Z 08007KT 39/17 A2986 RMK A01 T03860165  RH  027%=      5-min Rain = 0
KDO2 132311Z 07007KT 39/16 A2986 RMK A01 T03850163  RH  027%=      5-min Rain = 0
KDO2 132312Z 07005KT 39/16 A2986 RMK A01 T03850164  RH  027%=      5-min Rain = 0
KDO2 132313Z 08004KT 39/16 A2986 RMK A01 T03850164  RH  027%=      5-min Rain = 0
KDO2 132314Z 08005KT 39/17 A2986 RMK A01 T03850172  RH  029%=      5-min Rain = 0
KDO2 132315Z 08007KT 39/17 A2986 RMK A01 T03850165  RH  028%=      5-min Rain = 0
KDO2 132316Z 10006KT 39/16 A2986 RMK A01 T03860161  RH  027%=      5-min Rain = 0
KDO2 132317Z 12004KT 39/15 A2986 RMK A01 T03880147  RH  024%=      5-min Rain = 0
KDO2 132318Z 09004KT 39/15 A2986 RMK A01 T03890148  RH  024%=      5-min Rain = 0
KDO2 132319Z 11004KT 39/16 A2986 RMK A01 T03900159  RH  026%=      5-min Rain = 0
KDO2 132320Z 14003KT 39/16 A2986 RMK A01 T03910162  RH  026%=      5-min Rain = 0
KDO2 132321Z 12004KT 39/16 A2985 RMK A01 T03920164  RH  026%=      5-min Rain = 0
KDO2 132322Z 12004KT 39/16 A2985 RMK A01 T03920162  RH  026%=      5-min Rain = 0
KDO2 132323Z 12004KT 39/17 A2985 RMK A01 T03910165  RH  027%=      5-min Rain = 0
KDO2 132324Z 11005KT 39/15 A2985 RMK A01 T03910152  RH  025%=      5-min Rain = 0
KDO2 132325Z 11005KT 39/16 A2985 RMK A01 T03910155  RH  025%=      5-min Rain = 0
KDO2 132326Z 10005KT 39/16 A2985 RMK A01 T03910162  RH  026%=      5-min Rain = 0
KDO2 132327Z 09008KT 39/15 A2985 RMK A01 T03910154  RH  025%=      5-min Rain = 0
KDO2 132328Z 10007KT 39/16 A2985 RMK A01 T03910158  RH  026%=      5-min Rain = 0
KDO2 132329Z 12008KT 39/16 A2986 RMK A01 T03910162  RH  026%=      5-min Rain = 0
KDO2 132330Z 11013KT 39/15 A2986 RMK A01 T03900154  RH  025%=      5-min Rain = 0
KDO2 132331Z 12013KT 39/15 A2986 RMK A01 T03890147  RH  024%=      5-min Rain = 0
KDO2 132332Z 11009KT 39/15 A2986 RMK A01 T03880150  RH  025%=      5-min Rain = 0
KDO2 132333Z 12011KT 39/15 A2986 RMK A01 T03870151  RH  025%=      5-min Rain = 0
KDO2 132334Z 11011KT 39/15 A2986 RMK A01 T03860149  RH  025%=      5-min Rain = 0
KDO2 132335Z 10010KT 39/15 A2986 RMK A01 T03850147  RH  025%=      5-min Rain = 0
KDO2 132336Z 09007KT 38/14 A2986 RMK A01 T03840144  RH  024%=      5-min Rain = 0
KDO2 132337Z 10006KT 39/14 A2986 RMK A01 T03850144  RH  024%=      5-min Rain = 0
KDO2 132338Z 13008KT 39/15 A2986 RMK A01 T03870147  RH  024%=      5-min Rain = 0
KDO2 132339Z 15009KT 39/15 A2986 RMK A01 T03870150  RH  025%=      5-min Rain = 0
KDO2 132340Z 15008KT 39/16 A2986 RMK A01 T03870157  RH  026%=      5-min Rain = 0
KDO2 132341Z 15009KT 39/15 A2986 RMK A01 T03860154  RH  026%=      5-min Rain = 0
KDO2 132342Z 15008KT 39/16 A2986 RMK A01 T03850159  RH  027%=      5-min Rain = 0
KDO2 132343Z 15008KT 38/16 A2986 RMK A01 T03840158  RH  026%=      5-min Rain = 0
KDO2 132344Z 15009KT 38/16 A2986 RMK A01 T03830156  RH  026%=      5-min Rain = 0
KDO2 132345Z 14007KT 38/16 A2986 RMK A01 T03820159  RH  027%=      5-min Rain = 0
KDO2 132346Z 12007KT 38/16 A2986 RMK A01 T03810161  RH  027%=      5-min Rain = 0
KDO2 132347Z 11007KT 38/16 A2986 RMK A01 T03800155  RH  026%=      5-min Rain = 0
KDO2 132348Z 11009KT 38/15 A2986 RMK A01 T03800151  RH  026%=      5-min Rain = 0
KDO2 132349Z 11009KT 38/15 A2986 RMK A01 T03800147  RH  025%=      5-min Rain = 0
KDO2 132350Z 11009KT 38/15 A2987 RMK A01 T03800147  RH  025%=      5-min Rain = 0
KDO2 132351Z 12007KT 38/15 A2987 RMK A01 T03800146  RH  025%=      5-min Rain = 0
KDO2 132352Z 11006KT 38/15 A2987 RMK A01 T03790152  RH  026%=      5-min Rain = 0
KDO2 132353Z 11005KT 38/15 A2987 RMK A01 T03780152  RH  026%=      5-min Rain = 0
KDO2 132354Z 10007G12KT 38/15 A2987 RMK A01 T03770150  RH  026%=      5-min Rain = 0
KDO2 132355Z 11010KT 38/14 A2987 RMK A01 T03770141  RH  025%=      5-min Rain = 0
KDO2 132356Z 09008KT 38/14 A2987 RMK A01 T03780140  RH  024%=      5-min Rain = 0
KDO2 132357Z 10009KT 38/14 A2987 RMK A01 T03800140  RH  024%=      5-min Rain = 0
KDO2 132358Z 10010KT 38/14 A2987 RMK A01 T03800141  RH  024%=      5-min Rain = 0
KDO2 132359Z 10008KT 38/14 A2987 RMK A01 T03800141  RH  024%=      5-min Rain = 0
KDO2 140000Z 10008KT 38/14 A2987 RMK A01 T03800142  RH  024%=      5-min Rain = 0
KDO2 140001Z 10009KT 38/14 A2987 RMK A01 T03790141  RH  024%=      5-min Rain = 0
KDO2 140002Z 11009KT 38/14 A2987 RMK A01 T03790141  RH  024%=      5-min Rain = 0
KDO2 140003Z 11009KT 38/14 A2987 RMK A01 T03790141  RH  024%=      5-min Rain = 0
KDO2 140004Z 10007KT 38/14 A2987 RMK A01 T03780143  RH  025%=      5-min Rain = 0
KDO2 140005Z 10006KT 38/14 A2987 RMK A01 T03770144  RH  025%=      5-min Rain = 0
KDO2 140006Z 09006KT 38/15 A2987 RMK A01 T03760145  RH  025%=      5-min Rain = 0
KDO2 140007Z 10006KT 38/15 A2987 RMK A01 T03750145  RH  026%=      5-min Rain = 0
KDO2 140008Z 09007KT 37/15 A2987 RMK A01 T03740146  RH  026%=      5-min Rain = 0
KDO2 140009Z 09008KT 37/15 A2987 RMK A01 T03730146  RH  026%=      5-min Rain = 0
KDO2 140010Z 09007KT 37/15 A2987 RMK A01 T03730145  RH  026%=      5-min Rain = 0
KDO2 140011Z 09007KT 37/15 A2987 RMK A01 T03730146  RH  026%=      5-min Rain = 0
KDO2 140012Z 08006KT 37/15 A2987 RMK A01 T03720147  RH  026%=      5-min Rain = 0
KDO2 140013Z 08007KT 37/15 A2987 RMK A01 T03720148  RH  027%=      5-min Rain = 0
KDO2 140014Z 10008KT 37/15 A2987 RMK A01 T03710147  RH  027%=      5-min Rain = 0
KDO2 140015Z 09007KT 37/15 A2987 RMK A01 T03700145  RH  026%=      5-min Rain = 0
KDO2 140016Z 08007KT 37/15 A2987 RMK A01 T03710146  RH  026%=      5-min Rain = 0
KDO2 140017Z 08007KT 37/15 A2987 RMK A01 T03700150  RH  027%=      5-min Rain = 0
KDO2 140018Z 08007KT 37/15 A2987 RMK A01 T03680152  RH  028%=      5-min Rain = 0
KDO2 140019Z 09008KT 37/15 A2987 RMK A01 T03660149  RH  028%=      5-min Rain = 0
KDO2 140020Z 09007KT 37/15 A2987 RMK A01 T03660150  RH  028%=      5-min Rain = 0
KDO2 140021Z 09006KT 37/15 A2987 RMK A01 T03660151  RH  028%=      5-min Rain = 0
KDO2 140022Z 10007KT 37/15 A2987 RMK A01 T03650152  RH  028%=      5-min Rain = 0
KDO2 140023Z 10007KT 37/15 A2987 RMK A01 T03650150  RH  028%=      5-min Rain = 0
KDO2 140024Z 10008KT 37/15 A2987 RMK A01 T03650151  RH  028%=      5-min Rain = 0
KDO2 140025Z 10007KT 36/15 A2987 RMK A01 T03640148  RH  028%=      5-min Rain = 0
KDO2 140026Z 10007KT 37/15 A2987 RMK A01 T03650148  RH  028%=      5-min Rain = 0
KDO2 140027Z 10006KT 37/15 A2987 RMK A01 T03650148  RH  028%=      5-min Rain = 0
KDO2 140028Z 09007KT 37/15 A2987 RMK A01 T03650149  RH  028%=      5-min Rain = 0
KDO2 140029Z 09008KT 37/15 A2987 RMK A01 T03650145  RH  027%=      5-min Rain = 0
KDO2 140030Z 09008KT 37/15 A2987 RMK A01 T03660145  RH  027%=      5-min Rain = 0
KDO2 140031Z 10008KT 37/15 A2987 RMK A01 T03670146  RH  027%=      5-min Rain = 0
KDO2 140032Z 10007KT 37/15 A2987 RMK A01 T03670146  RH  027%=      5-min Rain = 0
KDO2 140033Z 10007KT 37/15 A2987 RMK A01 T03670146  RH  027%=      5-min Rain = 0
KDO2 140034Z 10006KT 37/15 A2987 RMK A01 T03660147  RH  027%=      5-min Rain = 0
KDO2 140035Z 10006KT 37/15 A2987 RMK A01 T03650147  RH  027%=      5-min Rain = 0
KDO2 140036Z 11006KT 36/15 A2987 RMK A01 T03640148  RH  028%=      5-min Rain = 0
KDO2 140037Z 11006KT 36/15 A2987 RMK A01 T03630149  RH  028%=      5-min Rain = 0
KDO2 140038Z 10006KT 36/15 A2987 RMK A01 T03610148  RH  028%=      5-min Rain = 0
KDO2 140039Z 10006KT 36/15 A2987 RMK A01 T03610148  RH  028%=      5-min Rain = 0
KDO2 140040Z 11007KT 36/15 A2987 RMK A01 T03610148  RH  028%=      5-min Rain = 0
KDO2 140041Z 11007KT 36/15 A2987 RMK A01 T03600148  RH  028%=      5-min Rain = 0
KDO2 140042Z 11006KT 36/15 A2987 RMK A01 T03600148  RH  028%=      5-min Rain = 0
KDO2 140043Z 11006KT 36/15 A2987 RMK A01 T03590148  RH  028%=      5-min Rain = 0
KDO2 140044Z 10006KT 36/15 A2987 RMK A01 T03590148  RH  028%=      5-min Rain = 0
KDO2 140045Z 10006KT 36/15 A2987 RMK A01 T03580147  RH  028%=      5-min Rain = 0
KDO2 140046Z 10006KT 36/15 A2987 RMK A01 T03580148  RH  029%=      5-min Rain = 0
KDO2 140047Z 10007KT 36/15 A2987 RMK A01 T03580146  RH  028%=      5-min Rain = 0
KDO2 140048Z 10007KT 36/14 A2987 RMK A01 T03590144  RH  028%=      5-min Rain = 0
KDO2 140049Z 10008KT 36/15 A2987 RMK A01 T03600145  RH  028%=      5-min Rain = 0
KDO2 140050Z 11008KT 36/14 A2987 RMK A01 T03600144  RH  028%=      5-min Rain = 0
KDO2 140051Z 10008KT 36/14 A2987 RMK A01 T03610144  RH  027%=      5-min Rain = 0
KDO2 140052Z 10007KT 36/14 A2987 RMK A01 T03620144  RH  027%=      5-min Rain = 0
KDO2 140053Z 10007KT 36/15 A2987 RMK A01 T03610145  RH  028%=      5-min Rain = 0
KDO2 140054Z 09006KT 36/15 A2987 RMK A01 T03600146  RH  028%=      5-min Rain = 0
KDO2 140055Z 10006KT 36/15 A2987 RMK A01 T03580146  RH  028%=      5-min Rain = 0
KDO2 140056Z 09006KT 36/15 A2987 RMK A01 T03570146  RH  028%=      5-min Rain = 0
KDO2 140057Z 09006KT 36/15 A2987 RMK A01 T03560147  RH  029%=      5-min Rain = 0
KDO2 140058Z 09007KT 36/15 A2987 RMK A01 T03550147  RH  029%=      5-min Rain = 0
KDO2 140059Z 09007KT 35/15 A2987 RMK A01 T03540147  RH  029%=      5-min Rain = 0
KDO2 140100Z 09006KT 35/15 A2987 RMK A01 T03540147  RH  029%=      5-min Rain = 0
KDO2 140101Z 09006KT 35/15 A2987 RMK A01 T03530147  RH  029%=      5-min Rain = 0
KDO2 140102Z 09006KT 35/15 A2987 RMK A01 T03520147  RH  029%=      5-min Rain = 0
KDO2 140103Z 10006KT 35/15 A2987 RMK A01 T03510147  RH  030%=      5-min Rain = 0
KDO2 140104Z 09006KT 35/15 A2987 RMK A01 T03510147  RH  030%=      5-min Rain = 0
KDO2 140105Z 09007KT 35/15 A2987 RMK A01 T03510147  RH  029%=      5-min Rain = 0
KDO2 140106Z 10006KT 35/15 A2987 RMK A01 T03510146  RH  029%=      5-min Rain = 0
KDO2 140107Z 10006KT 35/15 A2987 RMK A01 T03510146  RH  029%=      5-min Rain = 0
KDO2 140108Z 10006KT 35/15 A2987 RMK A01 T03510147  RH  029%=      5-min Rain = 0
KDO2 140109Z 10007KT 35/15 A2987 RMK A01 T03510146  RH  029%=      5-min Rain = 0
KDO2 140110Z 09008KT 35/15 A2987 RMK A01 T03520146  RH  029%=      5-min Rain = 0
KDO2 140111Z 10009KT 35/15 A2987 RMK A01 T03520147  RH  029%=      5-min Rain = 0
KDO2 140112Z 10010KT 35/15 A2987 RMK A01 T03530148  RH  029%=      5-min Rain = 0
KDO2 140113Z 10009KT 36/15 A2988 RMK A01 T03550149  RH  029%=      5-min Rain = 0
KDO2 140114Z 10009KT 36/15 A2988 RMK A01 T03560149  RH  029%=      5-min Rain = 0
KDO2 140115Z 10009KT 36/15 A2988 RMK A01 T03570150  RH  029%=      5-min Rain = 0
KDO2 140116Z 10007KT 36/15 A2987 RMK A01 T03580150  RH  029%=      5-min Rain = 0
KDO2 140117Z 11007KT 36/15 A2987 RMK A01 T03590150  RH  029%=      5-min Rain = 0
KDO2 140118Z 11008KT 36/15 A2987 RMK A01 T03590151  RH  029%=      5-min Rain = 0
KDO2 140119Z 10008KT 36/15 A2987 RMK A01 T03580150  RH  029%=      5-min Rain = 0
KDO2 140120Z 10007KT 36/15 A2987 RMK A01 T03570150  RH  029%=      5-min Rain = 0
KDO2 140121Z 10006KT 36/15 A2987 RMK A01 T03560150  RH  029%=      5-min Rain = 0
KDO2 140122Z 09006KT 36/15 A2987 RMK A01 T03550151  RH  030%=      5-min Rain = 0
KDO2 140123Z 09007KT 35/15 A2988 RMK A01 T03530151  RH  030%=      5-min Rain = 0
KDO2 140124Z 09007KT 35/15 A2988 RMK A01 T03520151  RH  030%=      5-min Rain = 0
KDO2 140125Z 09006KT 35/15 A2988 RMK A01 T03510152  RH  030%=      5-min Rain = 0
KDO2 140126Z 09007KT 35/15 A2988 RMK A01 T03500152  RH  031%=      5-min Rain = 0
KDO2 140127Z 09007KT 35/15 A2988 RMK A01 T03480152  RH  031%=      5-min Rain = 0
KDO2 140128Z 09006KT 35/15 A2988 RMK A01 T03470152  RH  031%=      5-min Rain = 0
KDO2 140129Z 09007KT 35/15 A2988 RMK A01 T03460152  RH  032%=      5-min Rain = 0
KDO2 140130Z 09006KT 35/15 A2988 RMK A01 T03450152  RH  032%=      5-min Rain = 0
KDO2 140131Z 09006KT 34/15 A2988 RMK A01 T03440153  RH  032%=      5-min Rain = 0
KDO2 140132Z 09007KT 34/15 A2988 RMK A01 T03430152  RH  032%=      5-min Rain = 0
KDO2 140133Z 09007KT 34/15 A2987 RMK A01 T03430153  RH  032%=      5-min Rain = 0
KDO2 140134Z 09007KT 34/15 A2987 RMK A01 T03420153  RH  032%=      5-min Rain = 0
KDO2 140135Z 09006KT 34/15 A2987 RMK A01 T03420154  RH  032%=      5-min Rain = 0
KDO2 140136Z 09007KT 34/15 A2987 RMK A01 T03410154  RH  033%=      5-min Rain = 0
KDO2 140137Z 09007KT 34/15 A2987 RMK A01 T03400154  RH  033%=      5-min Rain = 0
KDO2 140138Z 09007KT 34/15 A2987 RMK A01 T03400154  RH  033%=      5-min Rain = 0
KDO2 140139Z 09007KT 34/15 A2988 RMK A01 T03390154  RH  033%=      5-min Rain = 0
KDO2 140140Z 09008KT 34/15 A2988 RMK A01 T03380154  RH  033%=      5-min Rain = 0
KDO2 140141Z 09007KT 34/15 A2988 RMK A01 T03380154  RH  033%=      5-min Rain = 0
KDO2 140142Z 09007KT 34/15 A2988 RMK A01 T03380154  RH  033%=      5-min Rain = 0
KDO2 140143Z 09007KT 34/15 A2988 RMK A01 T03370154  RH  033%=      5-min Rain = 0
KDO2 140144Z 09007KT 34/15 A2988 RMK A01 T03370154  RH  033%=      5-min Rain = 0
KDO2 140145Z 09008KT 34/15 A2988 RMK A01 T03370154  RH  033%=      5-min Rain = 0
KDO2 140146Z 10007KT 34/15 A2988 RMK A01 T03370154  RH  033%=      5-min Rain = 0
KDO2 140147Z 09007KT 34/15 A2988 RMK A01 T03370154  RH  033%=      5-min Rain = 0
KDO2 140148Z 09007KT 34/15 A2988 RMK A01 T03370154  RH  033%=      5-min Rain = 0
KDO2 140149Z 09007KT 34/16 A2988 RMK A01 T03370155  RH  033%=      5-min Rain = 0
KDO2 140150Z 09007KT 34/16 A2988 RMK A01 T03370155  RH  034%=      5-min Rain = 0
KDO2 140151Z 09006KT 34/16 A2988 RMK A01 T03360155  RH  034%=      5-min Rain = 0
KDO2 140152Z 09006KT 34/16 A2988 RMK A01 T03350155  RH  034%=      5-min Rain = 0
KDO2 140153Z 09006KT 34/16 A2988 RMK A01 T03350155  RH  034%=      5-min Rain = 0
KDO2 140154Z 09006KT 33/16 A2988 RMK A01 T03340155  RH  034%=      5-min Rain = 0
KDO2 140155Z 09007KT 33/16 A2988 RMK A01 T03330155  RH  034%=      5-min Rain = 0
KDO2 140156Z 09007KT 33/16 A2988 RMK A01 T03330155  RH  034%=      5-min Rain = 0
KDO2 140157Z 10006KT 33/16 A2988 RMK A01 T03320155  RH  034%=      5-min Rain = 0
KDO2 140158Z 10007KT 33/16 A2988 RMK A01 T03330155  RH  034%=      5-min Rain = 0
KDO2 140159Z 09007KT 33/16 A2988 RMK A01 T03320155  RH  034%=      5-min Rain = 0
KDO2 140200Z 10007KT 33/15 A2988 RMK A01 T03320154  RH  034%=      5-min Rain = 0
KDO2 140201Z 10007KT 33/15 A2988 RMK A01 T03320154  RH  034%=      5-min Rain = 0
KDO2 140202Z 10007KT 33/15 A2988 RMK A01 T03320154  RH  034%=      5-min Rain = 0
KDO2 140203Z 10007KT 33/16 A2989 RMK A01 T03330155  RH  034%=      5-min Rain = 0
KDO2 140204Z 10007KT 33/16 A2989 RMK A01 T03320155  RH  034%=      5-min Rain = 0
KDO2 140205Z 10006KT 33/16 A2989 RMK A01 T03320155  RH  035%=      5-min Rain = 0
KDO2 140206Z 09006KT 33/16 A2989 RMK A01 T03310155  RH  035%=      5-min Rain = 0
KDO2 140207Z 09006KT 33/16 A2989 RMK A01 T03310155  RH  035%=      5-min Rain = 0
KDO2 140208Z 09006KT 33/16 A2989 RMK A01 T03300155  RH  035%=      5-min Rain = 0
KDO2 140209Z 09006KT 33/16 A2989 RMK A01 T03290155  RH  035%=      5-min Rain = 0
KDO2 140210Z 09007KT 33/16 A2989 RMK A01 T03280155  RH  035%=      5-min Rain = 0
KDO2 140211Z 09007KT 33/16 A2989 RMK A01 T03280155  RH  035%=      5-min Rain = 0
KDO2 140212Z 09007KT 33/16 A2989 RMK A01 T03270155  RH  036%=      5-min Rain = 0
KDO2 140213Z 09007KT 33/16 A2989 RMK A01 T03270155  RH  036%=      5-min Rain = 0
KDO2 140214Z 08007KT 33/16 A2989 RMK A01 T03260155  RH  036%=      5-min Rain = 0
KDO2 140215Z 08007KT 33/16 A2989 RMK A01 T03270155  RH  036%=      5-min Rain = 0
KDO2 140216Z 08007KT 33/16 A2989 RMK A01 T03270155  RH  036%=      5-min Rain = 0
KDO2 140217Z 09007KT 33/16 A2989 RMK A01 T03270155  RH  036%=      5-min Rain = 0
KDO2 140218Z 09008KT 33/16 A2989 RMK A01 T03270156  RH  036%=      5-min Rain = 0
KDO2 140219Z 09008KT 33/16 A2989 RMK A01 T03270156  RH  036%=      5-min Rain = 0
KDO2 140220Z 09008KT 33/16 A2989 RMK A01 T03260155  RH  036%=      5-min Rain = 0
KDO2 140221Z 09008KT 33/16 A2989 RMK A01 T03270156  RH  036%=      5-min Rain = 0
KDO2 140222Z 09008KT 33/16 A299 RMK A01 T03270156  RH  036%=      5-min Rain = 0
KDO2 140223Z 09008KT 33/16 A299 RMK A01 T03270156  RH  036%=      5-min Rain = 0
KDO2 140224Z 09008KT 33/16 A299 RMK A01 T03270156  RH  036%=      5-min Rain = 0
KDO2 140225Z 09007KT 33/16 A299 RMK A01 T03260156  RH  036%=      5-min Rain = 0
KDO2 140226Z 09007KT 33/16 A299 RMK A01 T03260156  RH  036%=      5-min Rain = 0
KDO2 140227Z 09007KT 33/16 A299 RMK A01 T03260156  RH  036%=      5-min Rain = 0
KDO2 140228Z 09007KT 33/16 A299 RMK A01 T03260156  RH  036%=      5-min Rain = 0
KDO2 140229Z 09007KT 33/16 A299 RMK A01 T03260156  RH  036%=      5-min Rain = 0
KDO2 140230Z 09007KT 33/16 A299 RMK A01 T03260156  RH  036%=      5-min Rain = 0
KDO2 140231Z 09006KT 33/16 A299 RMK A01 T03250156  RH  036%=      5-min Rain = 0
KDO2 140232Z 09006KT 32/16 A299 RMK A01 T03240156  RH  036%=      5-min Rain = 0
KDO2 140233Z 09007KT 32/16 A299 RMK A01 T03240156  RH  036%=      5-min Rain = 0
KDO2 140234Z 09007KT 32/16 A299 RMK A01 T03240156  RH  036%=      5-min Rain = 0
KDO2 140235Z 09006KT 32/16 A2991 RMK A01 T03240156  RH  037%=      5-min Rain = 0
KDO2 140236Z 09006KT 32/16 A2991 RMK A01 T03240157  RH  037%=      5-min Rain = 0
KDO2 140237Z 09006KT 32/16 A2991 RMK A01 T03240157  RH  037%=      5-min Rain = 0
KDO2 140238Z 09007KT 32/16 A2991 RMK A01 T03240157  RH  037%=      5-min Rain = 0
KDO2 140239Z 09007KT 32/16 A2991 RMK A01 T03230157  RH  037%=      5-min Rain = 0
KDO2 140240Z 09007KT 32/16 A2991 RMK A01 T03230157  RH  037%=      5-min Rain = 0
KDO2 140241Z 09007KT 32/16 A2991 RMK A01 T03240158  RH  037%=      5-min Rain = 0
KDO2 140242Z 09006KT 32/16 A2991 RMK A01 T03230157  RH  037%=      5-min Rain = 0
KDO2 140243Z 09007KT 32/16 A2991 RMK A01 T03220158  RH  037%=      5-min Rain = 0
KDO2 140244Z 09006KT 32/16 A2991 RMK A01 T03220157  RH  037%=      5-min Rain = 0
KDO2 140245Z 09006KT 32/16 A2991 RMK A01 T03220158  RH  037%=      5-min Rain = 0
KDO2 140246Z 09006KT 32/16 A2991 RMK A01 T03210158  RH  037%=      5-min Rain = 0
KDO2 140247Z 09007KT 32/16 A2991 RMK A01 T03210158  RH  037%=      5-min Rain = 0
KDO2 140248Z 09007KT 32/16 A2991 RMK A01 T03210158  RH  037%=      5-min Rain = 0
KDO2 140249Z 09007KT 32/16 A2991 RMK A01 T03220158  RH  037%=      5-min Rain = 0
KDO2 140250Z 09008KT 32/16 A2992 RMK A01 T03230158  RH  037%=      5-min Rain = 0
KDO2 140251Z 09008KT 32/16 A2992 RMK A01 T03240158  RH  037%=      5-min Rain = 0
KDO2 140252Z 09008KT 33/16 A2992 RMK A01 T03250158  RH  037%=      5-min Rain = 0
KDO2 140253Z 09008KT 33/16 A2992 RMK A01 T03260158  RH  036%=      5-min Rain = 0
KDO2 140254Z 09008KT 33/16 A2992 RMK A01 T03260158  RH  036%=      5-min Rain = 0
KDO2 140255Z 09008KT 33/16 A2992 RMK A01 T03270158  RH  036%=      5-min Rain = 0
KDO2 140256Z 09007KT 33/16 A2992 RMK A01 T03270159  RH  036%=      5-min Rain = 0
KDO2 140257Z 09007KT 33/16 A2992 RMK A01 T03270159  RH  036%=      5-min Rain = 0
KDO2 140258Z 09007KT 33/16 A2992 RMK A01 T03270159  RH  036%=      5-min Rain = 0
KDO2 140259Z 09007KT 33/16 A2992 RMK A01 T03270159  RH  036%=      5-min Rain = 0
KDO2 140300Z 10007KT 33/16 A2992 RMK A01 T03260158  RH  037%=      5-min Rain = 0
KDO2 140301Z 09007KT 33/16 A2992 RMK A01 T03260158  RH  037%=      5-min Rain = 0
KDO2 140302Z 10007KT 33/16 A2992 RMK A01 T03260158  RH  037%=      5-min Rain = 0
KDO2 140303Z 09007KT 33/16 A2992 RMK A01 T03260158  RH  037%=      5-min Rain = 0
KDO2 140304Z 10007KT 33/16 A2992 RMK A01 T03250158  RH  037%=      5-min Rain = 0
KDO2 140305Z 10007KT 33/16 A2992 RMK A01 T03250159  RH  037%=      5-min Rain = 0
KDO2 140306Z 10007KT 33/16 A2992 RMK A01 T03250158  RH  037%=      5-min Rain = 0
KDO2 140307Z 10007KT 32/16 A2992 RMK A01 T03240158  RH  037%=      5-min Rain = 0
KDO2 140308Z 10007KT 32/16 A2992 RMK A01 T03240158  RH  037%=      5-min Rain = 0
KDO2 140309Z 10006KT 32/16 A2993 RMK A01 T03240158  RH  037%=      5-min Rain = 0
KDO2 140310Z 10006KT 32/16 A2993 RMK A01 T03240158  RH  037%=      5-min Rain = 0
KDO2 140311Z 10007KT 32/16 A2993 RMK A01 T03230158  RH  037%=      5-min Rain = 0
KDO2 140312Z 10006KT 32/16 A2993 RMK A01 T03230158  RH  037%=      5-min Rain = 0
KDO2 140313Z 10007KT 32/16 A2993 RMK A01 T03220158  RH  037%=      5-min Rain = 0
KDO2 140314Z 10007KT 32/16 A2993 RMK A01 T03220158  RH  037%=      5-min Rain = 0
KDO2 140315Z 10006KT 32/16 A2993 RMK A01 T03220158  RH  037%=      5-min Rain = 0
KDO2 140316Z 10006KT 32/16 A2993 RMK A01 T03210158  RH  037%=      5-min Rain = 0
KDO2 140317Z 10006KT 32/16 A2993 RMK A01 T03200158  RH  038%=      5-min Rain = 0
KDO2 140318Z 10007KT 32/16 A2993 RMK A01 T03190158  RH  038%=      5-min Rain = 0
KDO2 140319Z 10007KT 32/16 A2993 RMK A01 T03190157  RH  038%=      5-min Rain = 0
KDO2 140320Z 10007KT 32/16 A2993 RMK A01 T03190158  RH  038%=      5-min Rain = 0
KDO2 140321Z 10007KT 32/16 A2993 RMK A01 T03180158  RH  038%=      5-min Rain = 0
KDO2 140322Z 10006KT 32/16 A2993 RMK A01 T03170158  RH  038%=      5-min Rain = 0
KDO2 140323Z 10006KT 32/16 A2993 RMK A01 T03170158  RH  038%=      5-min Rain = 0
KDO2 140324Z 10006KT 32/16 A2993 RMK A01 T03160158  RH  039%=      5-min Rain = 0
KDO2 140325Z 10006KT 32/16 A2993 RMK A01 T03160158  RH  039%=      5-min Rain = 0
KDO2 140326Z 10006KT 32/16 A2993 RMK A01 T03150158  RH  039%=      5-min Rain = 0
KDO2 140327Z 10007KT 32/16 A2993 RMK A01 T03150158  RH  039%=      5-min Rain = 0
KDO2 140328Z 10006KT 31/16 A2993 RMK A01 T03140158  RH  039%=      5-min Rain = 0
KDO2 140329Z 10006KT 31/16 A2993 RMK A01 T03140158  RH  039%=      5-min Rain = 0
KDO2 140330Z 11006KT 31/16 A2993 RMK A01 T03140158  RH  039%=      5-min Rain = 0
KDO2 140331Z 10006KT 31/16 A2993 RMK A01 T03140158  RH  039%=      5-min Rain = 0
KDO2 140332Z 10006KT 31/16 A2993 RMK A01 T03140158  RH  039%=      5-min Rain = 0
KDO2 140333Z 10005KT 31/16 A2993 RMK A01 T03140158  RH  039%=      5-min Rain = 0
KDO2 140334Z 11005KT 31/16 A2993 RMK A01 T03130158  RH  039%=      5-min Rain = 0
KDO2 140335Z 11006KT 31/16 A2993 RMK A01 T03130159  RH  039%=      5-min Rain = 0
KDO2 140336Z 10006KT 31/16 A2993 RMK A01 T03120159  RH  040%=      5-min Rain = 0
KDO2 140337Z 10006KT 31/16 A2993 RMK A01 T03120158  RH  040%=      5-min Rain = 0
KDO2 140338Z 10006KT 31/16 A2994 RMK A01 T03110158  RH  040%=      5-min Rain = 0
KDO2 140339Z 10006KT 31/16 A2994 RMK A01 T03110159  RH  040%=      5-min Rain = 0
KDO2 140340Z 10006KT 31/16 A2994 RMK A01 T03100159  RH  040%=      5-min Rain = 0
KDO2 140341Z 10005KT 31/16 A2994 RMK A01 T03100159  RH  040%=      5-min Rain = 0
KDO2 140342Z 10006KT 31/16 A2994 RMK A01 T03100159  RH  040%=      5-min Rain = 0
KDO2 140343Z 10005KT 31/16 A2994 RMK A01 T03090159  RH  040%=      5-min Rain = 0
KDO2 140344Z 10006KT 31/16 A2994 RMK A01 T03090159  RH  040%=      5-min Rain = 0
KDO2 140345Z 10006KT 31/16 A2994 RMK A01 T03080159  RH  041%=      5-min Rain = 0
KDO2 140346Z 10006KT 31/16 A2994 RMK A01 T03070159  RH  041%=      5-min Rain = 0
KDO2 140347Z 10005KT 31/16 A2994 RMK A01 T03070159  RH  041%=      5-min Rain = 0
KDO2 140348Z 10005KT 31/16 A2994 RMK A01 T03060159  RH  041%=      5-min Rain = 0
KDO2 140349Z 10006KT 31/16 A2994 RMK A01 T03060159  RH  041%=      5-min Rain = 0
KDO2 140350Z 10005KT 31/16 A2994 RMK A01 T03060159  RH  041%=      5-min Rain = 0
KDO2 140351Z 10005KT 31/16 A2994 RMK A01 T03050160  RH  041%=      5-min Rain = 0
KDO2 140352Z 10005KT 31/16 A2994 RMK A01 T03050159  RH  041%=      5-min Rain = 0
KDO2 140353Z 10006KT 30/16 A2994 RMK A01 T03040159  RH  042%=      5-min Rain = 0
KDO2 140354Z 10005KT 30/16 A2994 RMK A01 T03040160  RH  042%=      5-min Rain = 0
KDO2 140355Z 10006KT 30/16 A2994 RMK A01 T03030160  RH  042%=      5-min Rain = 0
KDO2 140356Z 10005KT 30/16 A2994 RMK A01 T03030160  RH  042%=      5-min Rain = 0
KDO2 140357Z 10005KT 30/16 A2994 RMK A01 T03030160  RH  042%=      5-min Rain = 0
KDO2 140358Z 10005KT 30/16 A2994 RMK A01 T03020160  RH  042%=      5-min Rain = 0
KDO2 140359Z 10005KT 30/16 A2995 RMK A01 T03020161  RH  042%=      5-min Rain = 0
KDO2 140400Z 10005KT 30/16 A2995 RMK A01 T03010160  RH  043%=      5-min Rain = 0
KDO2 140401Z 09005KT 30/16 A2995 RMK A01 T03010161  RH  043%=      5-min Rain = 0
KDO2 140402Z 09005KT 30/16 A2995 RMK A01 T03010161  RH  043%=      5-min Rain = 0
KDO2 140403Z 10005KT 30/16 A2995 RMK A01 T03000160  RH  043%=      5-min Rain = 0
KDO2 140404Z 10005KT 30/16 A2995 RMK A01 T02990161  RH  043%=      5-min Rain = 0
KDO2 140405Z 10005KT 30/16 A2995 RMK A01 T02990161  RH  043%=      5-min Rain = 0
KDO2 140406Z 10005KT 30/16 A2995 RMK A01 T02980161  RH  044%=      5-min Rain = 0
KDO2 140407Z 10005KT 30/16 A2995 RMK A01 T02980161  RH  044%=      5-min Rain = 0
KDO2 140408Z 10005KT 30/16 A2995 RMK A01 T02980161  RH  044%=      5-min Rain = 0
KDO2 140409Z 10005KT 30/16 A2995 RMK A01 T02980162  RH  044%=      5-min Rain = 0
KDO2 140410Z 10005KT 30/16 A2995 RMK A01 T02970162  RH  044%=      5-min Rain = 0
KDO2 140411Z 10005KT 30/16 A2995 RMK A01 T02970162  RH  044%=      5-min Rain = 0
KDO2 140412Z 10005KT 30/16 A2995 RMK A01 T02970162  RH  044%=      5-min Rain = 0
KDO2 140413Z 10005KT 30/16 A2995 RMK A01 T02970162  RH  044%=      5-min Rain = 0
KDO2 140414Z 10005KT 30/16 A2995 RMK A01 T02960162  RH  044%=      5-min Rain = 0
KDO2 140415Z 10005KT 30/16 A2995 RMK A01 T02960162  RH  044%=      5-min Rain = 0
KDO2 140416Z 10005KT 30/16 A2995 RMK A01 T02960162  RH  044%=      5-min Rain = 0
KDO2 140417Z 10005KT 30/16 A2995 RMK A01 T02950162  RH  044%=      5-min Rain = 0
KDO2 140418Z 10006KT 30/16 A2995 RMK A01 T02950162  RH  045%=      5-min Rain = 0
KDO2 140419Z 09006KT 30/16 A2995 RMK A01 T02950161  RH  045%=      5-min Rain = 0
KDO2 140420Z 09006KT 30/16 A2995 RMK A01 T02950162  RH  045%=      5-min Rain = 0
KDO2 140421Z 09006KT 30/16 A2995 RMK A01 T02950161  RH  044%=      5-min Rain = 0
KDO2 140422Z 09006KT 29/16 A2995 RMK A01 T02940161  RH  044%=      5-min Rain = 0
KDO2 140423Z 09006KT 30/16 A2995 RMK A01 T02950161  RH  045%=      5-min Rain = 0
KDO2 140424Z 09006KT 29/16 A2995 RMK A01 T02940161  RH  045%=      5-min Rain = 0
KDO2 140425Z 08006KT 29/16 A2995 RMK A01 T02940161  RH  045%=      5-min Rain = 0
KDO2 140426Z 08006KT 29/16 A2995 RMK A01 T02940161  RH  045%=      5-min Rain = 0
KDO2 140427Z 08006KT 29/16 A2995 RMK A01 T02930161  RH  045%=      5-min Rain = 0
KDO2 140428Z 08006KT 29/16 A2995 RMK A01 T02930161  RH  045%=      5-min Rain = 0
KDO2 140429Z 08006KT 29/16 A2995 RMK A01 T02930162  RH  045%=      5-min Rain = 0
KDO2 140430Z 08006KT 29/16 A2995 RMK A01 T02920162  RH  045%=      5-min Rain = 0
KDO2 140431Z 08006KT 29/16 A2995 RMK A01 T02910162  RH  046%=      5-min Rain = 0
KDO2 140432Z 08006KT 29/16 A2995 RMK A01 T02910162  RH  046%=      5-min Rain = 0
KDO2 140433Z 08006KT 29/16 A2995 RMK A01 T02900163  RH  046%=      5-min Rain = 0
KDO2 140434Z 07006KT 29/16 A2995 RMK A01 T02900163  RH  046%=      5-min Rain = 0
KDO2 140435Z 08006KT 29/16 A2995 RMK A01 T02900163  RH  046%=      5-min Rain = 0
KDO2 140436Z 08006KT 29/16 A2995 RMK A01 T02900163  RH  046%=      5-min Rain = 0
KDO2 140437Z 07005KT 29/16 A2995 RMK A01 T02890163  RH  046%=      5-min Rain = 0
KDO2 140438Z 07006KT 29/16 A2995 RMK A01 T02900163  RH  046%=      5-min Rain = 0
KDO2 140439Z 07006KT 29/16 A2995 RMK A01 T02890164  RH  047%=      5-min Rain = 0
KDO2 140440Z 07006KT 29/16 A2996 RMK A01 T02890163  RH  047%=      5-min Rain = 0
KDO2 140441Z 08006KT 29/16 A2996 RMK A01 T02890163  RH  047%=      5-min Rain = 0
KDO2 140442Z 08006KT 29/16 A2996 RMK A01 T02890163  RH  047%=      5-min Rain = 0
KDO2 140443Z 07006KT 29/16 A2996 RMK A01 T02890163  RH  047%=      5-min Rain = 0
KDO2 140444Z 07006KT 29/16 A2996 RMK A01 T02890163  RH  047%=      5-min Rain = 0
KDO2 140445Z 07006KT 29/16 A2996 RMK A01 T02890163  RH  046%=      5-min Rain = 0
KDO2 140446Z 07006KT 29/16 A2996 RMK A01 T02890163  RH  046%=      5-min Rain = 0
KDO2 140447Z 07005KT 29/16 A2996 RMK A01 T02900163  RH  046%=      5-min Rain = 0
KDO2 140448Z 07006KT 29/16 A2996 RMK A01 T02890163  RH  046%=      5-min Rain = 0
KDO2 140449Z 07006KT 29/16 A2996 RMK A01 T02890163  RH  046%=      5-min Rain = 0
KDO2 140450Z 08006KT 29/16 A2996 RMK A01 T02890164  RH  047%=      5-min Rain = 0
KDO2 140451Z 08006KT 29/16 A2996 RMK A01 T02890163  RH  047%=      5-min Rain = 0
KDO2 140452Z 08006KT 29/16 A2996 RMK A01 T02890164  RH  047%=      5-min Rain = 0
KDO2 140453Z 08006KT 29/16 A2996 RMK A01 T02900164  RH  047%=      5-min Rain = 0
KDO2 140454Z 08006KT 29/16 A2996 RMK A01 T02890164  RH  047%=      5-min Rain = 0
KDO2 140455Z 08006KT 29/16 A2996 RMK A01 T02890164  RH  047%=      5-min Rain = 0
KDO2 140456Z 08006KT 29/16 A2996 RMK A01 T02900164  RH  047%=      5-min Rain = 0
KDO2 140457Z 08006KT 29/16 A2996 RMK A01 T02890164  RH  047%=      5-min Rain = 0
KDO2 140458Z 08006KT 29/16 A2996 RMK A01 T02890164  RH  047%=      5-min Rain = 0
KDO2 140459Z 08006KT 29/16 A2996 RMK A01 T02900164  RH  047%=      5-min Rain = 0

Page generated in 0.1292 seconds.